<?xml version="1.0" encoding="UTF-8" standalone="no" ?>
<gpx xmlns="http://www.topografix.com/GPX/1/1" xmlns:xsi="http://www.w3.org/2001/XMLSchema-instance" xsi:schemaLocation="http://www.topografix.com/GPX/1/1 http://www.topografix.com/GPX/1/1/gpx.xsd" version="1.1" creator="VisuGPX - https://www.visugpx.com">
  <metadata>
    <name>Marche nordique Val Joly 2015</name>
    <desc><![CDATA[Trop gras, trop dur .....]]></desc>
  </metadata>
  <trk>
    <name><![CDATA[2015-03-29 13:36:17]]></name>
    <trkseg>
      <trkpt lat="50.11801" lon="4.13599">
        <ele>215.47</ele>
        <time>2015-03-29T08:15:40Z</time>
      </trkpt>
      <trkpt lat="50.11786" lon="4.13558">
        <ele>214.03</ele>
        <time>2015-03-29T08:15:54Z</time>
      </trkpt>
      <trkpt lat="50.11782" lon="4.13535">
        <ele>213.55</ele>
        <time>2015-03-29T08:16:03Z</time>
      </trkpt>
      <trkpt lat="50.11779" lon="4.13525">
        <ele>214.99</ele>
        <time>2015-03-29T08:16:07Z</time>
      </trkpt>
      <trkpt lat="50.11777" lon="4.13519">
        <ele>213.07</ele>
        <time>2015-03-29T08:16:09Z</time>
      </trkpt>
      <trkpt lat="50.11769" lon="4.13473">
        <ele>212.11</ele>
        <time>2015-03-29T08:16:25Z</time>
      </trkpt>
      <trkpt lat="50.11764" lon="4.13448">
        <ele>209.7</ele>
        <time>2015-03-29T08:16:33Z</time>
      </trkpt>
      <trkpt lat="50.11754" lon="4.13418">
        <ele>206.82</ele>
        <time>2015-03-29T08:16:44Z</time>
      </trkpt>
      <trkpt lat="50.11748" lon="4.13365">
        <ele>204.9</ele>
        <time>2015-03-29T08:17:03Z</time>
      </trkpt>
      <trkpt lat="50.11747" lon="4.13326">
        <ele>204.42</ele>
        <time>2015-03-29T08:17:18Z</time>
      </trkpt>
      <trkpt lat="50.11768" lon="4.1329">
        <ele>204.42</ele>
        <time>2015-03-29T08:17:35Z</time>
      </trkpt>
      <trkpt lat="50.11788" lon="4.13255">
        <ele>203.94</ele>
        <time>2015-03-29T08:17:52Z</time>
      </trkpt>
      <trkpt lat="50.11815" lon="4.13229">
        <ele>205.38</ele>
        <time>2015-03-29T08:18:10Z</time>
      </trkpt>
      <trkpt lat="50.11838" lon="4.13199">
        <ele>205.86</ele>
        <time>2015-03-29T08:18:27Z</time>
      </trkpt>
      <trkpt lat="50.11848" lon="4.13184">
        <ele>204.42</ele>
        <time>2015-03-29T08:18:36Z</time>
      </trkpt>
      <trkpt lat="50.11873" lon="4.13164">
        <ele>203.94</ele>
        <time>2015-03-29T08:18:53Z</time>
      </trkpt>
      <trkpt lat="50.11883" lon="4.13166">
        <ele>205.38</ele>
        <time>2015-03-29T08:18:59Z</time>
      </trkpt>
      <trkpt lat="50.1191" lon="4.13199">
        <ele>204.9</ele>
        <time>2015-03-29T08:19:19Z</time>
      </trkpt>
      <trkpt lat="50.11912" lon="4.1324">
        <ele>202.98</ele>
        <time>2015-03-29T08:19:35Z</time>
      </trkpt>
      <trkpt lat="50.11913" lon="4.13243">
        <ele>202.98</ele>
        <time>2015-03-29T08:19:36Z</time>
      </trkpt>
      <trkpt lat="50.1192" lon="4.13275">
        <ele>205.86</ele>
        <time>2015-03-29T08:19:49Z</time>
      </trkpt>
      <trkpt lat="50.11917" lon="4.13306">
        <ele>208.26</ele>
        <time>2015-03-29T08:20:02Z</time>
      </trkpt>
      <trkpt lat="50.11916" lon="4.13312">
        <ele>208.74</ele>
        <time>2015-03-29T08:20:04Z</time>
      </trkpt>
      <trkpt lat="50.11914" lon="4.1332">
        <ele>209.22</ele>
        <time>2015-03-29T08:20:08Z</time>
      </trkpt>
      <trkpt lat="50.11895" lon="4.13348">
        <ele>210.19</ele>
        <time>2015-03-29T08:20:23Z</time>
      </trkpt>
      <trkpt lat="50.11876" lon="4.1337">
        <ele>210.19</ele>
        <time>2015-03-29T08:20:37Z</time>
      </trkpt>
      <trkpt lat="50.11865" lon="4.13389">
        <ele>211.15</ele>
        <time>2015-03-29T08:20:49Z</time>
      </trkpt>
      <trkpt lat="50.11864" lon="4.13399">
        <ele>211.15</ele>
        <time>2015-03-29T08:20:53Z</time>
      </trkpt>
      <trkpt lat="50.11863" lon="4.13411">
        <ele>211.15</ele>
        <time>2015-03-29T08:20:58Z</time>
      </trkpt>
      <trkpt lat="50.11874" lon="4.13431">
        <ele>211.63</ele>
        <time>2015-03-29T08:21:09Z</time>
      </trkpt>
      <trkpt lat="50.11897" lon="4.13453">
        <ele>214.51</ele>
        <time>2015-03-29T08:21:28Z</time>
      </trkpt>
      <trkpt lat="50.11903" lon="4.1346">
        <ele>214.51</ele>
        <time>2015-03-29T08:21:34Z</time>
      </trkpt>
      <trkpt lat="50.11908" lon="4.13466">
        <ele>215.47</ele>
        <time>2015-03-29T08:21:38Z</time>
      </trkpt>
      <trkpt lat="50.11927" lon="4.13489">
        <ele>215.95</ele>
        <time>2015-03-29T08:21:52Z</time>
      </trkpt>
      <trkpt lat="50.11934" lon="4.13501">
        <ele>217.4</ele>
        <time>2015-03-29T08:21:59Z</time>
      </trkpt>
      <trkpt lat="50.11933" lon="4.13532">
        <ele>217.88</ele>
        <time>2015-03-29T08:22:13Z</time>
      </trkpt>
      <trkpt lat="50.11924" lon="4.13561">
        <ele>218.36</ele>
        <time>2015-03-29T08:22:27Z</time>
      </trkpt>
      <trkpt lat="50.11917" lon="4.13597">
        <ele>218.36</ele>
        <time>2015-03-29T08:22:42Z</time>
      </trkpt>
      <trkpt lat="50.11918" lon="4.136">
        <ele>218.36</ele>
        <time>2015-03-29T08:22:44Z</time>
      </trkpt>
      <trkpt lat="50.11923" lon="4.13621">
        <ele>220.28</ele>
        <time>2015-03-29T08:22:55Z</time>
      </trkpt>
      <trkpt lat="50.11925" lon="4.13629">
        <ele>221.72</ele>
        <time>2015-03-29T08:22:59Z</time>
      </trkpt>
      <trkpt lat="50.1193" lon="4.1367">
        <ele>223.64</ele>
        <time>2015-03-29T08:23:15Z</time>
      </trkpt>
      <trkpt lat="50.11931" lon="4.13675">
        <ele>224.61</ele>
        <time>2015-03-29T08:23:17Z</time>
      </trkpt>
      <trkpt lat="50.11937" lon="4.13703">
        <ele>227.49</ele>
        <time>2015-03-29T08:23:30Z</time>
      </trkpt>
      <trkpt lat="50.11946" lon="4.13726">
        <ele>230.37</ele>
        <time>2015-03-29T08:23:44Z</time>
      </trkpt>
      <trkpt lat="50.11953" lon="4.13738">
        <ele>231.33</ele>
        <time>2015-03-29T08:23:52Z</time>
      </trkpt>
      <trkpt lat="50.11954" lon="4.13742">
        <ele>232.3</ele>
        <time>2015-03-29T08:23:54Z</time>
      </trkpt>
      <trkpt lat="50.11963" lon="4.13775">
        <ele>234.22</ele>
        <time>2015-03-29T08:24:09Z</time>
      </trkpt>
      <trkpt lat="50.11964" lon="4.13781">
        <ele>234.7</ele>
        <time>2015-03-29T08:24:11Z</time>
      </trkpt>
      <trkpt lat="50.11965" lon="4.13809">
        <ele>236.14</ele>
        <time>2015-03-29T08:24:22Z</time>
      </trkpt>
      <trkpt lat="50.11964" lon="4.13819">
        <ele>236.62</ele>
        <time>2015-03-29T08:24:27Z</time>
      </trkpt>
      <trkpt lat="50.11964" lon="4.13831">
        <ele>237.1</ele>
        <time>2015-03-29T08:24:34Z</time>
      </trkpt>
      <trkpt lat="50.11969" lon="4.13859">
        <ele>237.1</ele>
        <time>2015-03-29T08:24:47Z</time>
      </trkpt>
      <trkpt lat="50.11965" lon="4.13889">
        <ele>238.06</ele>
        <time>2015-03-29T08:25:01Z</time>
      </trkpt>
      <trkpt lat="50.11964" lon="4.13907">
        <ele>237.58</ele>
        <time>2015-03-29T08:25:08Z</time>
      </trkpt>
      <trkpt lat="50.11955" lon="4.13915">
        <ele>237.58</ele>
        <time>2015-03-29T08:25:14Z</time>
      </trkpt>
      <trkpt lat="50.11944" lon="4.13924">
        <ele>236.62</ele>
        <time>2015-03-29T08:25:21Z</time>
      </trkpt>
      <trkpt lat="50.11925" lon="4.13951">
        <ele>235.66</ele>
        <time>2015-03-29T08:25:36Z</time>
      </trkpt>
      <trkpt lat="50.11924" lon="4.13956">
        <ele>235.66</ele>
        <time>2015-03-29T08:25:38Z</time>
      </trkpt>
      <trkpt lat="50.11932" lon="4.13999">
        <ele>236.14</ele>
        <time>2015-03-29T08:25:54Z</time>
      </trkpt>
      <trkpt lat="50.11945" lon="4.1404">
        <ele>236.14</ele>
        <time>2015-03-29T08:26:11Z</time>
      </trkpt>
      <trkpt lat="50.11954" lon="4.14082">
        <ele>235.66</ele>
        <time>2015-03-29T08:26:28Z</time>
      </trkpt>
      <trkpt lat="50.11956" lon="4.14113">
        <ele>236.62</ele>
        <time>2015-03-29T08:26:41Z</time>
      </trkpt>
      <trkpt lat="50.11953" lon="4.14145">
        <ele>236.14</ele>
        <time>2015-03-29T08:26:54Z</time>
      </trkpt>
      <trkpt lat="50.11951" lon="4.14182">
        <ele>236.14</ele>
        <time>2015-03-29T08:27:07Z</time>
      </trkpt>
      <trkpt lat="50.11951" lon="4.14184">
        <ele>236.14</ele>
        <time>2015-03-29T08:27:08Z</time>
      </trkpt>
      <trkpt lat="50.11954" lon="4.14195">
        <ele>234.7</ele>
        <time>2015-03-29T08:27:12Z</time>
      </trkpt>
      <trkpt lat="50.11957" lon="4.14211">
        <ele>234.7</ele>
        <time>2015-03-29T08:27:18Z</time>
      </trkpt>
      <trkpt lat="50.11968" lon="4.14249">
        <ele>234.22</ele>
        <time>2015-03-29T08:27:33Z</time>
      </trkpt>
      <trkpt lat="50.11969" lon="4.14255">
        <ele>234.22</ele>
        <time>2015-03-29T08:27:35Z</time>
      </trkpt>
      <trkpt lat="50.11974" lon="4.14273">
        <ele>234.22</ele>
        <time>2015-03-29T08:27:42Z</time>
      </trkpt>
      <trkpt lat="50.11995" lon="4.14306">
        <ele>234.22</ele>
        <time>2015-03-29T08:27:59Z</time>
      </trkpt>
      <trkpt lat="50.12015" lon="4.1431">
        <ele>235.18</ele>
        <time>2015-03-29T08:28:11Z</time>
      </trkpt>
      <trkpt lat="50.12033" lon="4.1429">
        <ele>236.62</ele>
        <time>2015-03-29T08:28:25Z</time>
      </trkpt>
      <trkpt lat="50.12051" lon="4.14271">
        <ele>237.1</ele>
        <time>2015-03-29T08:28:39Z</time>
      </trkpt>
      <trkpt lat="50.12058" lon="4.14247">
        <ele>236.14</ele>
        <time>2015-03-29T08:28:50Z</time>
      </trkpt>
      <trkpt lat="50.1206" lon="4.14243">
        <ele>237.58</ele>
        <time>2015-03-29T08:28:53Z</time>
      </trkpt>
      <trkpt lat="50.12076" lon="4.14214">
        <ele>239.51</ele>
        <time>2015-03-29T08:29:08Z</time>
      </trkpt>
      <trkpt lat="50.12076" lon="4.14212">
        <ele>239.51</ele>
        <time>2015-03-29T08:29:09Z</time>
      </trkpt>
      <trkpt lat="50.12076" lon="4.14183">
        <ele>239.02</ele>
        <time>2015-03-29T08:29:23Z</time>
      </trkpt>
      <trkpt lat="50.12074" lon="4.14156">
        <ele>239.02</ele>
        <time>2015-03-29T08:29:36Z</time>
      </trkpt>
      <trkpt lat="50.12069" lon="4.14123">
        <ele>238.54</ele>
        <time>2015-03-29T08:29:52Z</time>
      </trkpt>
      <trkpt lat="50.12065" lon="4.14092">
        <ele>238.54</ele>
        <time>2015-03-29T08:30:07Z</time>
      </trkpt>
      <trkpt lat="50.12052" lon="4.1406">
        <ele>238.06</ele>
        <time>2015-03-29T08:30:24Z</time>
      </trkpt>
      <trkpt lat="50.12038" lon="4.14038">
        <ele>236.62</ele>
        <time>2015-03-29T08:30:35Z</time>
      </trkpt>
      <trkpt lat="50.12022" lon="4.14008">
        <ele>233.26</ele>
        <time>2015-03-29T08:30:49Z</time>
      </trkpt>
      <trkpt lat="50.12017" lon="4.13975">
        <ele>233.26</ele>
        <time>2015-03-29T08:31:06Z</time>
      </trkpt>
      <trkpt lat="50.12022" lon="4.13941">
        <ele>232.78</ele>
        <time>2015-03-29T08:31:20Z</time>
      </trkpt>
      <trkpt lat="50.12023" lon="4.13938">
        <ele>232.3</ele>
        <time>2015-03-29T08:31:22Z</time>
      </trkpt>
      <trkpt lat="50.12034" lon="4.13909">
        <ele>231.33</ele>
        <time>2015-03-29T08:31:37Z</time>
      </trkpt>
      <trkpt lat="50.12044" lon="4.13875">
        <ele>229.89</ele>
        <time>2015-03-29T08:31:51Z</time>
      </trkpt>
      <trkpt lat="50.12051" lon="4.13839">
        <ele>227.01</ele>
        <time>2015-03-29T08:32:06Z</time>
      </trkpt>
      <trkpt lat="50.1205" lon="4.13833">
        <ele>226.53</ele>
        <time>2015-03-29T08:32:09Z</time>
      </trkpt>
      <trkpt lat="50.12047" lon="4.13799">
        <ele>224.12</ele>
        <time>2015-03-29T08:32:22Z</time>
      </trkpt>
      <trkpt lat="50.12046" lon="4.13794">
        <ele>222.68</ele>
        <time>2015-03-29T08:32:24Z</time>
      </trkpt>
      <trkpt lat="50.1204" lon="4.13766">
        <ele>221.72</ele>
        <time>2015-03-29T08:32:36Z</time>
      </trkpt>
      <trkpt lat="50.12039" lon="4.13743">
        <ele>220.76</ele>
        <time>2015-03-29T08:32:46Z</time>
      </trkpt>
      <trkpt lat="50.12047" lon="4.13715">
        <ele>221.24</ele>
        <time>2015-03-29T08:32:59Z</time>
      </trkpt>
      <trkpt lat="50.12056" lon="4.13688">
        <ele>218.84</ele>
        <time>2015-03-29T08:33:15Z</time>
      </trkpt>
      <trkpt lat="50.12066" lon="4.13657">
        <ele>216.43</ele>
        <time>2015-03-29T08:33:32Z</time>
      </trkpt>
      <trkpt lat="50.12068" lon="4.13625">
        <ele>212.59</ele>
        <time>2015-03-29T08:33:45Z</time>
      </trkpt>
      <trkpt lat="50.12066" lon="4.13592">
        <ele>209.7</ele>
        <time>2015-03-29T08:34:00Z</time>
      </trkpt>
      <trkpt lat="50.12066" lon="4.13577">
        <ele>207.3</ele>
        <time>2015-03-29T08:34:05Z</time>
      </trkpt>
      <trkpt lat="50.12063" lon="4.1354">
        <ele>204.42</ele>
        <time>2015-03-29T08:34:20Z</time>
      </trkpt>
      <trkpt lat="50.12062" lon="4.13525">
        <ele>202.01</ele>
        <time>2015-03-29T08:34:26Z</time>
      </trkpt>
      <trkpt lat="50.12066" lon="4.13504">
        <ele>198.17</ele>
        <time>2015-03-29T08:34:36Z</time>
      </trkpt>
      <trkpt lat="50.12065" lon="4.13486">
        <ele>194.8</ele>
        <time>2015-03-29T08:34:44Z</time>
      </trkpt>
      <trkpt lat="50.1206" lon="4.13475">
        <ele>192.88</ele>
        <time>2015-03-29T08:34:49Z</time>
      </trkpt>
      <trkpt lat="50.12046" lon="4.13453">
        <ele>190.96</ele>
        <time>2015-03-29T08:34:59Z</time>
      </trkpt>
      <trkpt lat="50.12042" lon="4.13445">
        <ele>189.04</ele>
        <time>2015-03-29T08:35:02Z</time>
      </trkpt>
      <trkpt lat="50.12035" lon="4.13439">
        <ele>190.48</ele>
        <time>2015-03-29T08:35:06Z</time>
      </trkpt>
      <trkpt lat="50.12021" lon="4.13425">
        <ele>189.04</ele>
        <time>2015-03-29T08:35:14Z</time>
      </trkpt>
      <trkpt lat="50.12008" lon="4.13404">
        <ele>185.67</ele>
        <time>2015-03-29T08:35:24Z</time>
      </trkpt>
      <trkpt lat="50.11994" lon="4.13375">
        <ele>186.63</ele>
        <time>2015-03-29T08:35:33Z</time>
      </trkpt>
      <trkpt lat="50.11992" lon="4.13371">
        <ele>186.15</ele>
        <time>2015-03-29T08:35:35Z</time>
      </trkpt>
      <trkpt lat="50.1199" lon="4.13358">
        <ele>185.19</ele>
        <time>2015-03-29T08:35:40Z</time>
      </trkpt>
      <trkpt lat="50.1199" lon="4.13353">
        <ele>185.19</ele>
        <time>2015-03-29T08:35:42Z</time>
      </trkpt>
      <trkpt lat="50.1199" lon="4.13347">
        <ele>183.27</ele>
        <time>2015-03-29T08:35:44Z</time>
      </trkpt>
      <trkpt lat="50.11976" lon="4.13303">
        <ele>180.38</ele>
        <time>2015-03-29T08:35:56Z</time>
      </trkpt>
      <trkpt lat="50.11974" lon="4.13293">
        <ele>178.94</ele>
        <time>2015-03-29T08:35:59Z</time>
      </trkpt>
      <trkpt lat="50.11973" lon="4.13255">
        <ele>178.94</ele>
        <time>2015-03-29T08:36:12Z</time>
      </trkpt>
      <trkpt lat="50.11974" lon="4.13216">
        <ele>178.46</ele>
        <time>2015-03-29T08:36:27Z</time>
      </trkpt>
      <trkpt lat="50.11976" lon="4.13188">
        <ele>178.94</ele>
        <time>2015-03-29T08:36:38Z</time>
      </trkpt>
      <trkpt lat="50.11988" lon="4.13158">
        <ele>181.35</ele>
        <time>2015-03-29T08:36:52Z</time>
      </trkpt>
      <trkpt lat="50.12009" lon="4.1314">
        <ele>184.71</ele>
        <time>2015-03-29T08:37:08Z</time>
      </trkpt>
      <trkpt lat="50.12022" lon="4.13107">
        <ele>184.23</ele>
        <time>2015-03-29T08:37:23Z</time>
      </trkpt>
      <trkpt lat="50.1204" lon="4.13071">
        <ele>183.75</ele>
        <time>2015-03-29T08:37:40Z</time>
      </trkpt>
      <trkpt lat="50.12063" lon="4.1304">
        <ele>183.27</ele>
        <time>2015-03-29T08:37:57Z</time>
      </trkpt>
      <trkpt lat="50.1208" lon="4.13013">
        <ele>181.83</ele>
        <time>2015-03-29T08:38:12Z</time>
      </trkpt>
      <trkpt lat="50.12101" lon="4.12967">
        <ele>181.35</ele>
        <time>2015-03-29T08:38:32Z</time>
      </trkpt>
      <trkpt lat="50.12116" lon="4.1293">
        <ele>179.9</ele>
        <time>2015-03-29T08:38:48Z</time>
      </trkpt>
      <trkpt lat="50.12128" lon="4.12897">
        <ele>177.98</ele>
        <time>2015-03-29T08:39:03Z</time>
      </trkpt>
      <trkpt lat="50.12134" lon="4.12884">
        <ele>179.9</ele>
        <time>2015-03-29T08:39:10Z</time>
      </trkpt>
      <trkpt lat="50.12136" lon="4.1288">
        <ele>178.46</ele>
        <time>2015-03-29T08:39:12Z</time>
      </trkpt>
      <trkpt lat="50.12145" lon="4.12861">
        <ele>179.9</ele>
        <time>2015-03-29T08:39:21Z</time>
      </trkpt>
      <trkpt lat="50.12161" lon="4.12824">
        <ele>180.87</ele>
        <time>2015-03-29T08:39:39Z</time>
      </trkpt>
      <trkpt lat="50.12175" lon="4.12789">
        <ele>181.35</ele>
        <time>2015-03-29T08:39:56Z</time>
      </trkpt>
      <trkpt lat="50.12178" lon="4.12784">
        <ele>181.35</ele>
        <time>2015-03-29T08:39:59Z</time>
      </trkpt>
      <trkpt lat="50.12181" lon="4.12781">
        <ele>181.35</ele>
        <time>2015-03-29T08:40:01Z</time>
      </trkpt>
      <trkpt lat="50.12182" lon="4.12779">
        <ele>181.35</ele>
        <time>2015-03-29T08:40:02Z</time>
      </trkpt>
      <trkpt lat="50.12188" lon="4.12772">
        <ele>181.35</ele>
        <time>2015-03-29T08:40:07Z</time>
      </trkpt>
      <trkpt lat="50.12195" lon="4.1276">
        <ele>182.31</ele>
        <time>2015-03-29T08:40:15Z</time>
      </trkpt>
      <trkpt lat="50.12196" lon="4.12758">
        <ele>182.31</ele>
        <time>2015-03-29T08:40:16Z</time>
      </trkpt>
      <trkpt lat="50.12197" lon="4.12756">
        <ele>182.31</ele>
        <time>2015-03-29T08:40:17Z</time>
      </trkpt>
      <trkpt lat="50.12198" lon="4.12752">
        <ele>182.79</ele>
        <time>2015-03-29T08:40:19Z</time>
      </trkpt>
      <trkpt lat="50.12209" lon="4.12722">
        <ele>183.75</ele>
        <time>2015-03-29T08:40:34Z</time>
      </trkpt>
      <trkpt lat="50.12213" lon="4.12706">
        <ele>185.19</ele>
        <time>2015-03-29T08:40:40Z</time>
      </trkpt>
      <trkpt lat="50.12213" lon="4.12703">
        <ele>185.19</ele>
        <time>2015-03-29T08:40:41Z</time>
      </trkpt>
      <trkpt lat="50.12213" lon="4.127">
        <ele>185.19</ele>
        <time>2015-03-29T08:40:42Z</time>
      </trkpt>
      <trkpt lat="50.12214" lon="4.12697">
        <ele>185.19</ele>
        <time>2015-03-29T08:40:43Z</time>
      </trkpt>
      <trkpt lat="50.12221" lon="4.12664">
        <ele>186.15</ele>
        <time>2015-03-29T08:40:57Z</time>
      </trkpt>
      <trkpt lat="50.12222" lon="4.12629">
        <ele>187.11</ele>
        <time>2015-03-29T08:41:10Z</time>
      </trkpt>
      <trkpt lat="50.12222" lon="4.12627">
        <ele>187.11</ele>
        <time>2015-03-29T08:41:11Z</time>
      </trkpt>
      <trkpt lat="50.12223" lon="4.12625">
        <ele>187.11</ele>
        <time>2015-03-29T08:41:12Z</time>
      </trkpt>
      <trkpt lat="50.12223" lon="4.12622">
        <ele>187.11</ele>
        <time>2015-03-29T08:41:13Z</time>
      </trkpt>
      <trkpt lat="50.12223" lon="4.12619">
        <ele>187.11</ele>
        <time>2015-03-29T08:41:14Z</time>
      </trkpt>
      <trkpt lat="50.12223" lon="4.12607">
        <ele>185.67</ele>
        <time>2015-03-29T08:41:19Z</time>
      </trkpt>
      <trkpt lat="50.12223" lon="4.12567">
        <ele>183.75</ele>
        <time>2015-03-29T08:41:32Z</time>
      </trkpt>
      <trkpt lat="50.12229" lon="4.12542">
        <ele>181.83</ele>
        <time>2015-03-29T08:41:42Z</time>
      </trkpt>
      <trkpt lat="50.1223" lon="4.12543">
        <ele>181.83</ele>
        <time>2015-03-29T08:41:43Z</time>
      </trkpt>
      <trkpt lat="50.12231" lon="4.12542">
        <ele>181.83</ele>
        <time>2015-03-29T08:41:44Z</time>
      </trkpt>
      <trkpt lat="50.12232" lon="4.12542">
        <ele>181.83</ele>
        <time>2015-03-29T08:41:45Z</time>
      </trkpt>
      <trkpt lat="50.12234" lon="4.12542">
        <ele>181.83</ele>
        <time>2015-03-29T08:41:46Z</time>
      </trkpt>
      <trkpt lat="50.12247" lon="4.12549">
        <ele>180.87</ele>
        <time>2015-03-29T08:41:58Z</time>
      </trkpt>
      <trkpt lat="50.12262" lon="4.12556">
        <ele>180.38</ele>
        <time>2015-03-29T08:42:10Z</time>
      </trkpt>
      <trkpt lat="50.12263" lon="4.12557">
        <ele>180.38</ele>
        <time>2015-03-29T08:42:11Z</time>
      </trkpt>
      <trkpt lat="50.12282" lon="4.12549">
        <ele>179.9</ele>
        <time>2015-03-29T08:42:22Z</time>
      </trkpt>
      <trkpt lat="50.12284" lon="4.12545">
        <ele>179.42</ele>
        <time>2015-03-29T08:42:24Z</time>
      </trkpt>
      <trkpt lat="50.12286" lon="4.12536">
        <ele>179.42</ele>
        <time>2015-03-29T08:42:29Z</time>
      </trkpt>
      <trkpt lat="50.12285" lon="4.12525">
        <ele>179.42</ele>
        <time>2015-03-29T08:42:35Z</time>
      </trkpt>
      <trkpt lat="50.12281" lon="4.12508">
        <ele>179.42</ele>
        <time>2015-03-29T08:42:43Z</time>
      </trkpt>
      <trkpt lat="50.12277" lon="4.12498">
        <ele>178.94</ele>
        <time>2015-03-29T08:42:48Z</time>
      </trkpt>
      <trkpt lat="50.12276" lon="4.12488">
        <ele>180.38</ele>
        <time>2015-03-29T08:42:52Z</time>
      </trkpt>
      <trkpt lat="50.12267" lon="4.12446">
        <ele>181.35</ele>
        <time>2015-03-29T08:43:08Z</time>
      </trkpt>
      <trkpt lat="50.12249" lon="4.12422">
        <ele>181.83</ele>
        <time>2015-03-29T08:43:22Z</time>
      </trkpt>
      <trkpt lat="50.12231" lon="4.12402">
        <ele>181.35</ele>
        <time>2015-03-29T08:43:37Z</time>
      </trkpt>
      <trkpt lat="50.12211" lon="4.12387">
        <ele>181.35</ele>
        <time>2015-03-29T08:43:53Z</time>
      </trkpt>
      <trkpt lat="50.122" lon="4.12356">
        <ele>181.35</ele>
        <time>2015-03-29T08:44:08Z</time>
      </trkpt>
      <trkpt lat="50.122" lon="4.12353">
        <ele>181.35</ele>
        <time>2015-03-29T08:44:10Z</time>
      </trkpt>
      <trkpt lat="50.12206" lon="4.12364">
        <ele>182.31</ele>
        <time>2015-03-29T08:44:17Z</time>
      </trkpt>
      <trkpt lat="50.12224" lon="4.12393">
        <ele>182.31</ele>
        <time>2015-03-29T08:44:34Z</time>
      </trkpt>
      <trkpt lat="50.12243" lon="4.12397">
        <ele>183.27</ele>
        <time>2015-03-29T08:44:49Z</time>
      </trkpt>
      <trkpt lat="50.12266" lon="4.12409">
        <ele>185.19</ele>
        <time>2015-03-29T08:45:07Z</time>
      </trkpt>
      <trkpt lat="50.12282" lon="4.12434">
        <ele>185.19</ele>
        <time>2015-03-29T08:45:21Z</time>
      </trkpt>
      <trkpt lat="50.12293" lon="4.12454">
        <ele>185.19</ele>
        <time>2015-03-29T08:45:33Z</time>
      </trkpt>
      <trkpt lat="50.12307" lon="4.12482">
        <ele>186.63</ele>
        <time>2015-03-29T08:45:48Z</time>
      </trkpt>
      <trkpt lat="50.1231" lon="4.12488">
        <ele>186.63</ele>
        <time>2015-03-29T08:45:51Z</time>
      </trkpt>
      <trkpt lat="50.12312" lon="4.12491">
        <ele>186.63</ele>
        <time>2015-03-29T08:45:53Z</time>
      </trkpt>
      <trkpt lat="50.12315" lon="4.12497">
        <ele>186.63</ele>
        <time>2015-03-29T08:45:57Z</time>
      </trkpt>
      <trkpt lat="50.12329" lon="4.12512">
        <ele>187.11</ele>
        <time>2015-03-29T08:46:09Z</time>
      </trkpt>
      <trkpt lat="50.12344" lon="4.12527">
        <ele>188.08</ele>
        <time>2015-03-29T08:46:23Z</time>
      </trkpt>
      <trkpt lat="50.12347" lon="4.12537">
        <ele>188.08</ele>
        <time>2015-03-29T08:46:31Z</time>
      </trkpt>
      <trkpt lat="50.12347" lon="4.12543">
        <ele>185.67</ele>
        <time>2015-03-29T08:46:34Z</time>
      </trkpt>
      <trkpt lat="50.12334" lon="4.12551">
        <ele>181.83</ele>
        <time>2015-03-29T08:46:47Z</time>
      </trkpt>
      <trkpt lat="50.12316" lon="4.12547">
        <ele>178.46</ele>
        <time>2015-03-29T08:46:59Z</time>
      </trkpt>
      <trkpt lat="50.12301" lon="4.12549">
        <ele>177.5</ele>
        <time>2015-03-29T08:47:09Z</time>
      </trkpt>
      <trkpt lat="50.12284" lon="4.12561">
        <ele>178.94</ele>
        <time>2015-03-29T08:47:23Z</time>
      </trkpt>
      <trkpt lat="50.1228" lon="4.12564">
        <ele>182.31</ele>
        <time>2015-03-29T08:47:29Z</time>
      </trkpt>
      <trkpt lat="50.12269" lon="4.12576">
        <ele>185.67</ele>
        <time>2015-03-29T08:47:42Z</time>
      </trkpt>
      <trkpt lat="50.12267" lon="4.1258">
        <ele>187.11</ele>
        <time>2015-03-29T08:47:45Z</time>
      </trkpt>
      <trkpt lat="50.12267" lon="4.12595">
        <ele>190</ele>
        <time>2015-03-29T08:47:55Z</time>
      </trkpt>
      <trkpt lat="50.12264" lon="4.12611">
        <ele>190.96</ele>
        <time>2015-03-29T08:48:06Z</time>
      </trkpt>
      <trkpt lat="50.12255" lon="4.1264">
        <ele>190.96</ele>
        <time>2015-03-29T08:48:22Z</time>
      </trkpt>
      <trkpt lat="50.1225" lon="4.12665">
        <ele>190.96</ele>
        <time>2015-03-29T08:48:36Z</time>
      </trkpt>
      <trkpt lat="50.12245" lon="4.12679">
        <ele>189.52</ele>
        <time>2015-03-29T08:48:45Z</time>
      </trkpt>
      <trkpt lat="50.12243" lon="4.12685">
        <ele>189.52</ele>
        <time>2015-03-29T08:48:48Z</time>
      </trkpt>
      <trkpt lat="50.12235" lon="4.12701">
        <ele>186.63</ele>
        <time>2015-03-29T08:48:59Z</time>
      </trkpt>
      <trkpt lat="50.12228" lon="4.12719">
        <ele>183.27</ele>
        <time>2015-03-29T08:49:10Z</time>
      </trkpt>
      <trkpt lat="50.12221" lon="4.12734">
        <ele>181.35</ele>
        <time>2015-03-29T08:49:18Z</time>
      </trkpt>
      <trkpt lat="50.12207" lon="4.12765">
        <ele>179.42</ele>
        <time>2015-03-29T08:49:33Z</time>
      </trkpt>
      <trkpt lat="50.12198" lon="4.12774">
        <ele>177.98</ele>
        <time>2015-03-29T08:49:40Z</time>
      </trkpt>
      <trkpt lat="50.12195" lon="4.12775">
        <ele>177.02</ele>
        <time>2015-03-29T08:49:42Z</time>
      </trkpt>
      <trkpt lat="50.12183" lon="4.12789">
        <ele>176.06</ele>
        <time>2015-03-29T08:49:50Z</time>
      </trkpt>
      <trkpt lat="50.12161" lon="4.12832">
        <ele>175.58</ele>
        <time>2015-03-29T08:50:09Z</time>
      </trkpt>
      <trkpt lat="50.12146" lon="4.12865">
        <ele>175.1</ele>
        <time>2015-03-29T08:50:24Z</time>
      </trkpt>
      <trkpt lat="50.12132" lon="4.12898">
        <ele>174.62</ele>
        <time>2015-03-29T08:50:40Z</time>
      </trkpt>
      <trkpt lat="50.12117" lon="4.12931">
        <ele>173.66</ele>
        <time>2015-03-29T08:50:56Z</time>
      </trkpt>
      <trkpt lat="50.12104" lon="4.1296">
        <ele>175.58</ele>
        <time>2015-03-29T08:51:11Z</time>
      </trkpt>
      <trkpt lat="50.12088" lon="4.12999">
        <ele>176.06</ele>
        <time>2015-03-29T08:51:30Z</time>
      </trkpt>
      <trkpt lat="50.12077" lon="4.13033">
        <ele>176.54</ele>
        <time>2015-03-29T08:51:46Z</time>
      </trkpt>
      <trkpt lat="50.12067" lon="4.13073">
        <ele>178.46</ele>
        <time>2015-03-29T08:52:04Z</time>
      </trkpt>
      <trkpt lat="50.12061" lon="4.13102">
        <ele>179.9</ele>
        <time>2015-03-29T08:52:19Z</time>
      </trkpt>
      <trkpt lat="50.12046" lon="4.1315">
        <ele>180.38</ele>
        <time>2015-03-29T08:52:37Z</time>
      </trkpt>
      <trkpt lat="50.12034" lon="4.13183">
        <ele>180.38</ele>
        <time>2015-03-29T08:52:50Z</time>
      </trkpt>
      <trkpt lat="50.12022" lon="4.13223">
        <ele>181.35</ele>
        <time>2015-03-29T08:53:05Z</time>
      </trkpt>
      <trkpt lat="50.1201" lon="4.13261">
        <ele>179.42</ele>
        <time>2015-03-29T08:53:21Z</time>
      </trkpt>
      <trkpt lat="50.12005" lon="4.13276">
        <ele>178.94</ele>
        <time>2015-03-29T08:53:28Z</time>
      </trkpt>
      <trkpt lat="50.12007" lon="4.13288">
        <ele>178.46</ele>
        <time>2015-03-29T08:53:33Z</time>
      </trkpt>
      <trkpt lat="50.12009" lon="4.13296">
        <ele>178.46</ele>
        <time>2015-03-29T08:53:37Z</time>
      </trkpt>
      <trkpt lat="50.12016" lon="4.13311">
        <ele>178.46</ele>
        <time>2015-03-29T08:53:45Z</time>
      </trkpt>
      <trkpt lat="50.12028" lon="4.13319">
        <ele>177.5</ele>
        <time>2015-03-29T08:53:54Z</time>
      </trkpt>
      <trkpt lat="50.12039" lon="4.13325">
        <ele>177.5</ele>
        <time>2015-03-29T08:54:01Z</time>
      </trkpt>
      <trkpt lat="50.12048" lon="4.13332">
        <ele>177.5</ele>
        <time>2015-03-29T08:54:07Z</time>
      </trkpt>
      <trkpt lat="50.12053" lon="4.13335">
        <ele>177.02</ele>
        <time>2015-03-29T08:54:10Z</time>
      </trkpt>
      <trkpt lat="50.12074" lon="4.13355">
        <ele>177.02</ele>
        <time>2015-03-29T08:54:26Z</time>
      </trkpt>
      <trkpt lat="50.12091" lon="4.13368">
        <ele>177.02</ele>
        <time>2015-03-29T08:54:39Z</time>
      </trkpt>
      <trkpt lat="50.12094" lon="4.13371">
        <ele>177.02</ele>
        <time>2015-03-29T08:54:41Z</time>
      </trkpt>
      <trkpt lat="50.12101" lon="4.13376">
        <ele>176.54</ele>
        <time>2015-03-29T08:54:46Z</time>
      </trkpt>
      <trkpt lat="50.12107" lon="4.13379">
        <ele>176.54</ele>
        <time>2015-03-29T08:54:50Z</time>
      </trkpt>
      <trkpt lat="50.12118" lon="4.13396">
        <ele>177.98</ele>
        <time>2015-03-29T08:55:01Z</time>
      </trkpt>
      <trkpt lat="50.12126" lon="4.13419">
        <ele>177.98</ele>
        <time>2015-03-29T08:55:14Z</time>
      </trkpt>
      <trkpt lat="50.12124" lon="4.13447">
        <ele>179.42</ele>
        <time>2015-03-29T08:55:27Z</time>
      </trkpt>
      <trkpt lat="50.12132" lon="4.13487">
        <ele>182.79</ele>
        <time>2015-03-29T08:55:42Z</time>
      </trkpt>
      <trkpt lat="50.12141" lon="4.13506">
        <ele>185.19</ele>
        <time>2015-03-29T08:55:52Z</time>
      </trkpt>
      <trkpt lat="50.12149" lon="4.13538">
        <ele>187.11</ele>
        <time>2015-03-29T08:56:08Z</time>
      </trkpt>
      <trkpt lat="50.12157" lon="4.13561">
        <ele>189.04</ele>
        <time>2015-03-29T08:56:23Z</time>
      </trkpt>
      <trkpt lat="50.12165" lon="4.1359">
        <ele>190.48</ele>
        <time>2015-03-29T08:56:40Z</time>
      </trkpt>
      <trkpt lat="50.12171" lon="4.13609">
        <ele>189.04</ele>
        <time>2015-03-29T08:56:50Z</time>
      </trkpt>
      <trkpt lat="50.12177" lon="4.13637">
        <ele>188.08</ele>
        <time>2015-03-29T08:57:03Z</time>
      </trkpt>
      <trkpt lat="50.12178" lon="4.13662">
        <ele>189.04</ele>
        <time>2015-03-29T08:57:14Z</time>
      </trkpt>
      <trkpt lat="50.12175" lon="4.13685">
        <ele>190.48</ele>
        <time>2015-03-29T08:57:27Z</time>
      </trkpt>
      <trkpt lat="50.12167" lon="4.13717">
        <ele>191.92</ele>
        <time>2015-03-29T08:57:42Z</time>
      </trkpt>
      <trkpt lat="50.12159" lon="4.1374">
        <ele>194.32</ele>
        <time>2015-03-29T08:57:54Z</time>
      </trkpt>
      <trkpt lat="50.12151" lon="4.1377">
        <ele>197.21</ele>
        <time>2015-03-29T08:58:11Z</time>
      </trkpt>
      <trkpt lat="50.12145" lon="4.13799">
        <ele>199.13</ele>
        <time>2015-03-29T08:58:26Z</time>
      </trkpt>
      <trkpt lat="50.12138" lon="4.13823">
        <ele>200.57</ele>
        <time>2015-03-29T08:58:40Z</time>
      </trkpt>
      <trkpt lat="50.12134" lon="4.13849">
        <ele>202.01</ele>
        <time>2015-03-29T08:58:54Z</time>
      </trkpt>
      <trkpt lat="50.12129" lon="4.13871">
        <ele>205.38</ele>
        <time>2015-03-29T08:59:06Z</time>
      </trkpt>
      <trkpt lat="50.12122" lon="4.13892">
        <ele>207.78</ele>
        <time>2015-03-29T08:59:20Z</time>
      </trkpt>
      <trkpt lat="50.12109" lon="4.13914">
        <ele>210.67</ele>
        <time>2015-03-29T08:59:37Z</time>
      </trkpt>
      <trkpt lat="50.12102" lon="4.13937">
        <ele>213.07</ele>
        <time>2015-03-29T08:59:53Z</time>
      </trkpt>
      <trkpt lat="50.12106" lon="4.13957">
        <ele>214.03</ele>
        <time>2015-03-29T09:00:05Z</time>
      </trkpt>
      <trkpt lat="50.12116" lon="4.13986">
        <ele>215.47</ele>
        <time>2015-03-29T09:00:21Z</time>
      </trkpt>
      <trkpt lat="50.12122" lon="4.14012">
        <ele>216.43</ele>
        <time>2015-03-29T09:00:36Z</time>
      </trkpt>
      <trkpt lat="50.12126" lon="4.14036">
        <ele>216.43</ele>
        <time>2015-03-29T09:00:47Z</time>
      </trkpt>
      <trkpt lat="50.12127" lon="4.14068">
        <ele>216.43</ele>
        <time>2015-03-29T09:01:01Z</time>
      </trkpt>
      <trkpt lat="50.12134" lon="4.14102">
        <ele>216.43</ele>
        <time>2015-03-29T09:01:17Z</time>
      </trkpt>
      <trkpt lat="50.12137" lon="4.14137">
        <ele>216.43</ele>
        <time>2015-03-29T09:01:34Z</time>
      </trkpt>
      <trkpt lat="50.12138" lon="4.14155">
        <ele>214.99</ele>
        <time>2015-03-29T09:01:41Z</time>
      </trkpt>
      <trkpt lat="50.12138" lon="4.14179">
        <ele>214.51</ele>
        <time>2015-03-29T09:01:53Z</time>
      </trkpt>
      <trkpt lat="50.12139" lon="4.14183">
        <ele>214.51</ele>
        <time>2015-03-29T09:01:56Z</time>
      </trkpt>
      <trkpt lat="50.12137" lon="4.14203">
        <ele>213.55</ele>
        <time>2015-03-29T09:02:03Z</time>
      </trkpt>
      <trkpt lat="50.12124" lon="4.14223">
        <ele>213.55</ele>
        <time>2015-03-29T09:02:17Z</time>
      </trkpt>
      <trkpt lat="50.12108" lon="4.14245">
        <ele>211.15</ele>
        <time>2015-03-29T09:02:33Z</time>
      </trkpt>
      <trkpt lat="50.12098" lon="4.14278">
        <ele>210.67</ele>
        <time>2015-03-29T09:02:47Z</time>
      </trkpt>
      <trkpt lat="50.12101" lon="4.14306">
        <ele>209.22</ele>
        <time>2015-03-29T09:03:00Z</time>
      </trkpt>
      <trkpt lat="50.12107" lon="4.14323">
        <ele>208.26</ele>
        <time>2015-03-29T09:03:09Z</time>
      </trkpt>
      <trkpt lat="50.1211" lon="4.14335">
        <ele>207.78</ele>
        <time>2015-03-29T09:03:14Z</time>
      </trkpt>
      <trkpt lat="50.12122" lon="4.14362">
        <ele>206.82</ele>
        <time>2015-03-29T09:03:29Z</time>
      </trkpt>
      <trkpt lat="50.12128" lon="4.14381">
        <ele>205.86</ele>
        <time>2015-03-29T09:03:39Z</time>
      </trkpt>
      <trkpt lat="50.12136" lon="4.1441">
        <ele>203.94</ele>
        <time>2015-03-29T09:03:52Z</time>
      </trkpt>
      <trkpt lat="50.12137" lon="4.14429">
        <ele>202.01</ele>
        <time>2015-03-29T09:04:04Z</time>
      </trkpt>
      <trkpt lat="50.12134" lon="4.14453">
        <ele>200.57</ele>
        <time>2015-03-29T09:04:16Z</time>
      </trkpt>
      <trkpt lat="50.12135" lon="4.14466">
        <ele>200.09</ele>
        <time>2015-03-29T09:04:21Z</time>
      </trkpt>
      <trkpt lat="50.12138" lon="4.14482">
        <ele>198.65</ele>
        <time>2015-03-29T09:04:28Z</time>
      </trkpt>
      <trkpt lat="50.12139" lon="4.14518">
        <ele>196.25</ele>
        <time>2015-03-29T09:04:42Z</time>
      </trkpt>
      <trkpt lat="50.12141" lon="4.14535">
        <ele>195.28</ele>
        <time>2015-03-29T09:04:51Z</time>
      </trkpt>
      <trkpt lat="50.12142" lon="4.14559">
        <ele>192.88</ele>
        <time>2015-03-29T09:05:02Z</time>
      </trkpt>
      <trkpt lat="50.12141" lon="4.14595">
        <ele>191.92</ele>
        <time>2015-03-29T09:05:16Z</time>
      </trkpt>
      <trkpt lat="50.12139" lon="4.14621">
        <ele>191.44</ele>
        <time>2015-03-29T09:05:32Z</time>
      </trkpt>
      <trkpt lat="50.12138" lon="4.14628">
        <ele>188.56</ele>
        <time>2015-03-29T09:05:40Z</time>
      </trkpt>
      <trkpt lat="50.12135" lon="4.14631">
        <ele>186.63</ele>
        <time>2015-03-29T09:05:43Z</time>
      </trkpt>
      <trkpt lat="50.12132" lon="4.14651">
        <ele>185.67</ele>
        <time>2015-03-29T09:05:56Z</time>
      </trkpt>
      <trkpt lat="50.12131" lon="4.14676">
        <ele>184.23</ele>
        <time>2015-03-29T09:06:08Z</time>
      </trkpt>
      <trkpt lat="50.1213" lon="4.14692">
        <ele>182.31</ele>
        <time>2015-03-29T09:06:17Z</time>
      </trkpt>
      <trkpt lat="50.12125" lon="4.14722">
        <ele>179.9</ele>
        <time>2015-03-29T09:06:31Z</time>
      </trkpt>
      <trkpt lat="50.12126" lon="4.14744">
        <ele>179.9</ele>
        <time>2015-03-29T09:06:41Z</time>
      </trkpt>
      <trkpt lat="50.12127" lon="4.1475">
        <ele>182.31</ele>
        <time>2015-03-29T09:06:49Z</time>
      </trkpt>
      <trkpt lat="50.12128" lon="4.14747">
        <ele>182.79</ele>
        <time>2015-03-29T09:06:52Z</time>
      </trkpt>
      <trkpt lat="50.12136" lon="4.14731">
        <ele>184.71</ele>
        <time>2015-03-29T09:07:07Z</time>
      </trkpt>
      <trkpt lat="50.12138" lon="4.14716">
        <ele>186.15</ele>
        <time>2015-03-29T09:07:17Z</time>
      </trkpt>
      <trkpt lat="50.12141" lon="4.14694">
        <ele>187.59</ele>
        <time>2015-03-29T09:07:33Z</time>
      </trkpt>
      <trkpt lat="50.12148" lon="4.14673">
        <ele>189.04</ele>
        <time>2015-03-29T09:07:47Z</time>
      </trkpt>
      <trkpt lat="50.12151" lon="4.14642">
        <ele>189.04</ele>
        <time>2015-03-29T09:08:00Z</time>
      </trkpt>
      <trkpt lat="50.12151" lon="4.14642">
        <ele>187.59</ele>
        <time>2015-03-29T09:08:02Z</time>
      </trkpt>
      <trkpt lat="50.12162" lon="4.14649">
        <ele>185.19</ele>
        <time>2015-03-29T09:08:16Z</time>
      </trkpt>
      <trkpt lat="50.12178" lon="4.14662">
        <ele>183.27</ele>
        <time>2015-03-29T09:08:31Z</time>
      </trkpt>
      <trkpt lat="50.12188" lon="4.14679">
        <ele>181.83</ele>
        <time>2015-03-29T09:08:44Z</time>
      </trkpt>
      <trkpt lat="50.12193" lon="4.14704">
        <ele>181.35</ele>
        <time>2015-03-29T09:08:57Z</time>
      </trkpt>
      <trkpt lat="50.12193" lon="4.14707">
        <ele>181.35</ele>
        <time>2015-03-29T09:08:58Z</time>
      </trkpt>
      <trkpt lat="50.12187" lon="4.14737">
        <ele>178.94</ele>
        <time>2015-03-29T09:09:15Z</time>
      </trkpt>
      <trkpt lat="50.12187" lon="4.14762">
        <ele>176.06</ele>
        <time>2015-03-29T09:09:29Z</time>
      </trkpt>
      <trkpt lat="50.12189" lon="4.14787">
        <ele>174.14</ele>
        <time>2015-03-29T09:09:45Z</time>
      </trkpt>
      <trkpt lat="50.12186" lon="4.148">
        <ele>171.73</ele>
        <time>2015-03-29T09:09:59Z</time>
      </trkpt>
      <trkpt lat="50.12186" lon="4.14815">
        <ele>168.85</ele>
        <time>2015-03-29T09:10:09Z</time>
      </trkpt>
      <trkpt lat="50.1219" lon="4.14824">
        <ele>167.41</ele>
        <time>2015-03-29T09:10:22Z</time>
      </trkpt>
      <trkpt lat="50.122" lon="4.14822">
        <ele>165.96</ele>
        <time>2015-03-29T09:10:37Z</time>
      </trkpt>
      <trkpt lat="50.12213" lon="4.14814">
        <ele>167.41</ele>
        <time>2015-03-29T09:10:50Z</time>
      </trkpt>
      <trkpt lat="50.12223" lon="4.14796">
        <ele>167.89</ele>
        <time>2015-03-29T09:11:04Z</time>
      </trkpt>
      <trkpt lat="50.12228" lon="4.14771">
        <ele>168.37</ele>
        <time>2015-03-29T09:11:19Z</time>
      </trkpt>
      <trkpt lat="50.1223" lon="4.14744">
        <ele>169.33</ele>
        <time>2015-03-29T09:11:33Z</time>
      </trkpt>
      <trkpt lat="50.12229" lon="4.14725">
        <ele>169.81</ele>
        <time>2015-03-29T09:11:41Z</time>
      </trkpt>
      <trkpt lat="50.12229" lon="4.14693">
        <ele>171.25</ele>
        <time>2015-03-29T09:11:56Z</time>
      </trkpt>
      <trkpt lat="50.12228" lon="4.14671">
        <ele>171.73</ele>
        <time>2015-03-29T09:12:10Z</time>
      </trkpt>
      <trkpt lat="50.12226" lon="4.14654">
        <ele>172.69</ele>
        <time>2015-03-29T09:12:22Z</time>
      </trkpt>
      <trkpt lat="50.12225" lon="4.14652">
        <ele>173.66</ele>
        <time>2015-03-29T09:12:24Z</time>
      </trkpt>
      <trkpt lat="50.12225" lon="4.14647">
        <ele>173.66</ele>
        <time>2015-03-29T09:12:26Z</time>
      </trkpt>
      <trkpt lat="50.12227" lon="4.1462">
        <ele>175.1</ele>
        <time>2015-03-29T09:12:41Z</time>
      </trkpt>
      <trkpt lat="50.1223" lon="4.14601">
        <ele>176.06</ele>
        <time>2015-03-29T09:12:53Z</time>
      </trkpt>
      <trkpt lat="50.12236" lon="4.14581">
        <ele>178.46</ele>
        <time>2015-03-29T09:13:08Z</time>
      </trkpt>
      <trkpt lat="50.12245" lon="4.14574">
        <ele>181.83</ele>
        <time>2015-03-29T09:13:21Z</time>
      </trkpt>
      <trkpt lat="50.12252" lon="4.14562">
        <ele>184.71</ele>
        <time>2015-03-29T09:13:32Z</time>
      </trkpt>
      <trkpt lat="50.12262" lon="4.14542">
        <ele>187.59</ele>
        <time>2015-03-29T09:13:46Z</time>
      </trkpt>
      <trkpt lat="50.12271" lon="4.14524">
        <ele>190</ele>
        <time>2015-03-29T09:14:01Z</time>
      </trkpt>
      <trkpt lat="50.12277" lon="4.14514">
        <ele>192.4</ele>
        <time>2015-03-29T09:14:12Z</time>
      </trkpt>
      <trkpt lat="50.12282" lon="4.14496">
        <ele>195.77</ele>
        <time>2015-03-29T09:14:27Z</time>
      </trkpt>
      <trkpt lat="50.12285" lon="4.14478">
        <ele>198.17</ele>
        <time>2015-03-29T09:14:43Z</time>
      </trkpt>
      <trkpt lat="50.12287" lon="4.14476">
        <ele>199.13</ele>
        <time>2015-03-29T09:14:45Z</time>
      </trkpt>
      <trkpt lat="50.12293" lon="4.14484">
        <ele>201.53</ele>
        <time>2015-03-29T09:15:01Z</time>
      </trkpt>
      <trkpt lat="50.12302" lon="4.14499">
        <ele>202.49</ele>
        <time>2015-03-29T09:15:17Z</time>
      </trkpt>
      <trkpt lat="50.12315" lon="4.14519">
        <ele>202.98</ele>
        <time>2015-03-29T09:15:33Z</time>
      </trkpt>
      <trkpt lat="50.12321" lon="4.14537">
        <ele>199.61</ele>
        <time>2015-03-29T09:15:47Z</time>
      </trkpt>
      <trkpt lat="50.12328" lon="4.14547">
        <ele>198.65</ele>
        <time>2015-03-29T09:15:56Z</time>
      </trkpt>
      <trkpt lat="50.12329" lon="4.14553">
        <ele>197.21</ele>
        <time>2015-03-29T09:15:59Z</time>
      </trkpt>
      <trkpt lat="50.12331" lon="4.14557">
        <ele>198.65</ele>
        <time>2015-03-29T09:16:01Z</time>
      </trkpt>
      <trkpt lat="50.12343" lon="4.14577">
        <ele>201.05</ele>
        <time>2015-03-29T09:16:15Z</time>
      </trkpt>
      <trkpt lat="50.12346" lon="4.14593">
        <ele>202.49</ele>
        <time>2015-03-29T09:16:27Z</time>
      </trkpt>
      <trkpt lat="50.12347" lon="4.14598">
        <ele>203.46</ele>
        <time>2015-03-29T09:16:29Z</time>
      </trkpt>
      <trkpt lat="50.12354" lon="4.1462">
        <ele>203.46</ele>
        <time>2015-03-29T09:16:43Z</time>
      </trkpt>
      <trkpt lat="50.12367" lon="4.14651">
        <ele>203.94</ele>
        <time>2015-03-29T09:17:00Z</time>
      </trkpt>
      <trkpt lat="50.12372" lon="4.14679">
        <ele>202.49</ele>
        <time>2015-03-29T09:17:15Z</time>
      </trkpt>
      <trkpt lat="50.12372" lon="4.14683">
        <ele>202.49</ele>
        <time>2015-03-29T09:17:17Z</time>
      </trkpt>
      <trkpt lat="50.12375" lon="4.14703">
        <ele>202.01</ele>
        <time>2015-03-29T09:17:30Z</time>
      </trkpt>
      <trkpt lat="50.12374" lon="4.14714">
        <ele>201.53</ele>
        <time>2015-03-29T09:17:35Z</time>
      </trkpt>
      <trkpt lat="50.12373" lon="4.14724">
        <ele>201.53</ele>
        <time>2015-03-29T09:17:40Z</time>
      </trkpt>
      <trkpt lat="50.12372" lon="4.14749">
        <ele>201.05</ele>
        <time>2015-03-29T09:17:53Z</time>
      </trkpt>
      <trkpt lat="50.12372" lon="4.14763">
        <ele>200.57</ele>
        <time>2015-03-29T09:18:01Z</time>
      </trkpt>
      <trkpt lat="50.12371" lon="4.14787">
        <ele>199.61</ele>
        <time>2015-03-29T09:18:14Z</time>
      </trkpt>
      <trkpt lat="50.1237" lon="4.14817">
        <ele>199.13</ele>
        <time>2015-03-29T09:18:28Z</time>
      </trkpt>
      <trkpt lat="50.1237" lon="4.1484">
        <ele>198.65</ele>
        <time>2015-03-29T09:18:40Z</time>
      </trkpt>
      <trkpt lat="50.12369" lon="4.14845">
        <ele>198.65</ele>
        <time>2015-03-29T09:18:43Z</time>
      </trkpt>
      <trkpt lat="50.12361" lon="4.14877">
        <ele>195.28</ele>
        <time>2015-03-29T09:19:00Z</time>
      </trkpt>
      <trkpt lat="50.1236" lon="4.14888">
        <ele>194.8</ele>
        <time>2015-03-29T09:19:05Z</time>
      </trkpt>
      <trkpt lat="50.12352" lon="4.14919">
        <ele>192.88</ele>
        <time>2015-03-29T09:19:20Z</time>
      </trkpt>
      <trkpt lat="50.12344" lon="4.14942">
        <ele>190.96</ele>
        <time>2015-03-29T09:19:32Z</time>
      </trkpt>
      <trkpt lat="50.12344" lon="4.14944">
        <ele>190.96</ele>
        <time>2015-03-29T09:19:33Z</time>
      </trkpt>
      <trkpt lat="50.12329" lon="4.14981">
        <ele>187.59</ele>
        <time>2015-03-29T09:19:47Z</time>
      </trkpt>
      <trkpt lat="50.12321" lon="4.15003">
        <ele>185.67</ele>
        <time>2015-03-29T09:19:57Z</time>
      </trkpt>
      <trkpt lat="50.12311" lon="4.15028">
        <ele>181.83</ele>
        <time>2015-03-29T09:20:10Z</time>
      </trkpt>
      <trkpt lat="50.12309" lon="4.1505">
        <ele>178.46</ele>
        <time>2015-03-29T09:20:20Z</time>
      </trkpt>
      <trkpt lat="50.12308" lon="4.15078">
        <ele>175.1</ele>
        <time>2015-03-29T09:20:33Z</time>
      </trkpt>
      <trkpt lat="50.12304" lon="4.15111">
        <ele>172.21</ele>
        <time>2015-03-29T09:20:47Z</time>
      </trkpt>
      <trkpt lat="50.12298" lon="4.15146">
        <ele>169.33</ele>
        <time>2015-03-29T09:21:02Z</time>
      </trkpt>
      <trkpt lat="50.12298" lon="4.15153">
        <ele>168.85</ele>
        <time>2015-03-29T09:21:05Z</time>
      </trkpt>
      <trkpt lat="50.12294" lon="4.15179">
        <ele>167.41</ele>
        <time>2015-03-29T09:21:19Z</time>
      </trkpt>
      <trkpt lat="50.12295" lon="4.15202">
        <ele>165.96</ele>
        <time>2015-03-29T09:21:31Z</time>
      </trkpt>
      <trkpt lat="50.12291" lon="4.15227">
        <ele>167.41</ele>
        <time>2015-03-29T09:21:38Z</time>
      </trkpt>
      <trkpt lat="50.12275" lon="4.15266">
        <ele>166.93</ele>
        <time>2015-03-29T09:21:54Z</time>
      </trkpt>
      <trkpt lat="50.12272" lon="4.15271">
        <ele>165.96</ele>
        <time>2015-03-29T09:21:57Z</time>
      </trkpt>
      <trkpt lat="50.12264" lon="4.15289">
        <ele>164.52</ele>
        <time>2015-03-29T09:22:04Z</time>
      </trkpt>
      <trkpt lat="50.12258" lon="4.15298">
        <ele>164.52</ele>
        <time>2015-03-29T09:22:09Z</time>
      </trkpt>
      <trkpt lat="50.12252" lon="4.15329">
        <ele>164.52</ele>
        <time>2015-03-29T09:22:23Z</time>
      </trkpt>
      <trkpt lat="50.12254" lon="4.1536">
        <ele>165.96</ele>
        <time>2015-03-29T09:22:39Z</time>
      </trkpt>
      <trkpt lat="50.1226" lon="4.15385">
        <ele>166.93</ele>
        <time>2015-03-29T09:22:52Z</time>
      </trkpt>
      <trkpt lat="50.12262" lon="4.15396">
        <ele>167.41</ele>
        <time>2015-03-29T09:22:58Z</time>
      </trkpt>
      <trkpt lat="50.12273" lon="4.15438">
        <ele>169.33</ele>
        <time>2015-03-29T09:23:17Z</time>
      </trkpt>
      <trkpt lat="50.12273" lon="4.15453">
        <ele>170.77</ele>
        <time>2015-03-29T09:23:23Z</time>
      </trkpt>
      <trkpt lat="50.12275" lon="4.15486">
        <ele>172.21</ele>
        <time>2015-03-29T09:23:40Z</time>
      </trkpt>
      <trkpt lat="50.12278" lon="4.15498">
        <ele>173.66</ele>
        <time>2015-03-29T09:23:51Z</time>
      </trkpt>
      <trkpt lat="50.12285" lon="4.15516">
        <ele>176.54</ele>
        <time>2015-03-29T09:24:02Z</time>
      </trkpt>
      <trkpt lat="50.12286" lon="4.15535">
        <ele>178.94</ele>
        <time>2015-03-29T09:24:12Z</time>
      </trkpt>
      <trkpt lat="50.12291" lon="4.15563">
        <ele>181.83</ele>
        <time>2015-03-29T09:24:26Z</time>
      </trkpt>
      <trkpt lat="50.12291" lon="4.15565">
        <ele>182.31</ele>
        <time>2015-03-29T09:24:27Z</time>
      </trkpt>
      <trkpt lat="50.12293" lon="4.15573">
        <ele>183.27</ele>
        <time>2015-03-29T09:24:31Z</time>
      </trkpt>
      <trkpt lat="50.12298" lon="4.15599">
        <ele>184.23</ele>
        <time>2015-03-29T09:24:45Z</time>
      </trkpt>
      <trkpt lat="50.12296" lon="4.15619">
        <ele>185.67</ele>
        <time>2015-03-29T09:24:58Z</time>
      </trkpt>
      <trkpt lat="50.12295" lon="4.1564">
        <ele>188.08</ele>
        <time>2015-03-29T09:25:09Z</time>
      </trkpt>
      <trkpt lat="50.12295" lon="4.15657">
        <ele>190.48</ele>
        <time>2015-03-29T09:25:21Z</time>
      </trkpt>
      <trkpt lat="50.12298" lon="4.15679">
        <ele>191.92</ele>
        <time>2015-03-29T09:25:33Z</time>
      </trkpt>
      <trkpt lat="50.12296" lon="4.157">
        <ele>193.36</ele>
        <time>2015-03-29T09:25:46Z</time>
      </trkpt>
      <trkpt lat="50.12294" lon="4.15719">
        <ele>195.77</ele>
        <time>2015-03-29T09:25:57Z</time>
      </trkpt>
      <trkpt lat="50.12295" lon="4.15741">
        <ele>197.21</ele>
        <time>2015-03-29T09:26:11Z</time>
      </trkpt>
      <trkpt lat="50.12299" lon="4.1576">
        <ele>199.61</ele>
        <time>2015-03-29T09:26:24Z</time>
      </trkpt>
      <trkpt lat="50.12305" lon="4.15775">
        <ele>199.61</ele>
        <time>2015-03-29T09:26:34Z</time>
      </trkpt>
      <trkpt lat="50.12314" lon="4.15796">
        <ele>201.05</ele>
        <time>2015-03-29T09:26:48Z</time>
      </trkpt>
      <trkpt lat="50.12323" lon="4.15819">
        <ele>201.53</ele>
        <time>2015-03-29T09:27:01Z</time>
      </trkpt>
      <trkpt lat="50.12326" lon="4.15836">
        <ele>202.01</ele>
        <time>2015-03-29T09:27:08Z</time>
      </trkpt>
      <trkpt lat="50.12327" lon="4.1584">
        <ele>202.01</ele>
        <time>2015-03-29T09:27:10Z</time>
      </trkpt>
      <trkpt lat="50.12329" lon="4.15856">
        <ele>202.01</ele>
        <time>2015-03-29T09:27:16Z</time>
      </trkpt>
      <trkpt lat="50.12328" lon="4.15881">
        <ele>201.53</ele>
        <time>2015-03-29T09:27:30Z</time>
      </trkpt>
      <trkpt lat="50.12326" lon="4.15887">
        <ele>200.57</ele>
        <time>2015-03-29T09:27:34Z</time>
      </trkpt>
      <trkpt lat="50.12328" lon="4.15901">
        <ele>200.57</ele>
        <time>2015-03-29T09:27:46Z</time>
      </trkpt>
      <trkpt lat="50.12314" lon="4.15894">
        <ele>202.49</ele>
        <time>2015-03-29T09:27:58Z</time>
      </trkpt>
      <trkpt lat="50.123" lon="4.15884">
        <ele>199.13</ele>
        <time>2015-03-29T09:28:10Z</time>
      </trkpt>
      <trkpt lat="50.12281" lon="4.1587">
        <ele>197.21</ele>
        <time>2015-03-29T09:28:26Z</time>
      </trkpt>
      <trkpt lat="50.12265" lon="4.15859">
        <ele>194.8</ele>
        <time>2015-03-29T09:28:40Z</time>
      </trkpt>
      <trkpt lat="50.12262" lon="4.15857">
        <ele>196.25</ele>
        <time>2015-03-29T09:28:42Z</time>
      </trkpt>
      <trkpt lat="50.1225" lon="4.15849">
        <ele>194.8</ele>
        <time>2015-03-29T09:28:50Z</time>
      </trkpt>
      <trkpt lat="50.12226" lon="4.15836">
        <ele>191.44</ele>
        <time>2015-03-29T09:29:07Z</time>
      </trkpt>
      <trkpt lat="50.12203" lon="4.15828">
        <ele>187.11</ele>
        <time>2015-03-29T09:29:21Z</time>
      </trkpt>
      <trkpt lat="50.12201" lon="4.15828">
        <ele>187.59</ele>
        <time>2015-03-29T09:29:22Z</time>
      </trkpt>
      <trkpt lat="50.12175" lon="4.15819">
        <ele>186.63</ele>
        <time>2015-03-29T09:29:40Z</time>
      </trkpt>
      <trkpt lat="50.12172" lon="4.15818">
        <ele>185.67</ele>
        <time>2015-03-29T09:29:42Z</time>
      </trkpt>
      <trkpt lat="50.12154" lon="4.15802">
        <ele>183.27</ele>
        <time>2015-03-29T09:29:59Z</time>
      </trkpt>
      <trkpt lat="50.12148" lon="4.15797">
        <ele>181.83</ele>
        <time>2015-03-29T09:30:07Z</time>
      </trkpt>
      <trkpt lat="50.12134" lon="4.15783">
        <ele>178.94</ele>
        <time>2015-03-29T09:30:24Z</time>
      </trkpt>
      <trkpt lat="50.12127" lon="4.15777">
        <ele>178.46</ele>
        <time>2015-03-29T09:30:31Z</time>
      </trkpt>
      <trkpt lat="50.12111" lon="4.15766">
        <ele>175.1</ele>
        <time>2015-03-29T09:30:43Z</time>
      </trkpt>
      <trkpt lat="50.1211" lon="4.15765">
        <ele>175.1</ele>
        <time>2015-03-29T09:30:44Z</time>
      </trkpt>
      <trkpt lat="50.12102" lon="4.15758">
        <ele>173.66</ele>
        <time>2015-03-29T09:30:50Z</time>
      </trkpt>
      <trkpt lat="50.12097" lon="4.15756">
        <ele>172.21</ele>
        <time>2015-03-29T09:30:54Z</time>
      </trkpt>
      <trkpt lat="50.12094" lon="4.15755">
        <ele>171.73</ele>
        <time>2015-03-29T09:30:56Z</time>
      </trkpt>
      <trkpt lat="50.12089" lon="4.15752">
        <ele>171.73</ele>
        <time>2015-03-29T09:31:01Z</time>
      </trkpt>
      <trkpt lat="50.12085" lon="4.1575">
        <ele>171.73</ele>
        <time>2015-03-29T09:31:05Z</time>
      </trkpt>
      <trkpt lat="50.12077" lon="4.1575">
        <ele>171.73</ele>
        <time>2015-03-29T09:31:13Z</time>
      </trkpt>
      <trkpt lat="50.12079" lon="4.15768">
        <ele>174.14</ele>
        <time>2015-03-29T09:31:23Z</time>
      </trkpt>
      <trkpt lat="50.12086" lon="4.1579">
        <ele>176.06</ele>
        <time>2015-03-29T09:31:37Z</time>
      </trkpt>
      <trkpt lat="50.1209" lon="4.15816">
        <ele>177.98</ele>
        <time>2015-03-29T09:31:50Z</time>
      </trkpt>
      <trkpt lat="50.12092" lon="4.15824">
        <ele>179.42</ele>
        <time>2015-03-29T09:31:55Z</time>
      </trkpt>
      <trkpt lat="50.12105" lon="4.15849">
        <ele>182.31</ele>
        <time>2015-03-29T09:32:13Z</time>
      </trkpt>
      <trkpt lat="50.1212" lon="4.1587">
        <ele>184.71</ele>
        <time>2015-03-29T09:32:29Z</time>
      </trkpt>
      <trkpt lat="50.12132" lon="4.15889">
        <ele>186.15</ele>
        <time>2015-03-29T09:32:44Z</time>
      </trkpt>
      <trkpt lat="50.12146" lon="4.15914">
        <ele>187.11</ele>
        <time>2015-03-29T09:33:02Z</time>
      </trkpt>
      <trkpt lat="50.12152" lon="4.1594">
        <ele>186.15</ele>
        <time>2015-03-29T09:33:17Z</time>
      </trkpt>
      <trkpt lat="50.12158" lon="4.15978">
        <ele>184.71</ele>
        <time>2015-03-29T09:33:36Z</time>
      </trkpt>
      <trkpt lat="50.12178" lon="4.16018">
        <ele>184.23</ele>
        <time>2015-03-29T09:33:58Z</time>
      </trkpt>
      <trkpt lat="50.12202" lon="4.16056">
        <ele>183.75</ele>
        <time>2015-03-29T09:34:21Z</time>
      </trkpt>
      <trkpt lat="50.12222" lon="4.16089">
        <ele>183.75</ele>
        <time>2015-03-29T09:34:40Z</time>
      </trkpt>
      <trkpt lat="50.12237" lon="4.16113">
        <ele>183.27</ele>
        <time>2015-03-29T09:34:54Z</time>
      </trkpt>
      <trkpt lat="50.12259" lon="4.16145">
        <ele>182.31</ele>
        <time>2015-03-29T09:35:14Z</time>
      </trkpt>
      <trkpt lat="50.1228" lon="4.1618">
        <ele>181.83</ele>
        <time>2015-03-29T09:35:35Z</time>
      </trkpt>
      <trkpt lat="50.12301" lon="4.16215">
        <ele>179.42</ele>
        <time>2015-03-29T09:35:54Z</time>
      </trkpt>
      <trkpt lat="50.12312" lon="4.16251">
        <ele>177.98</ele>
        <time>2015-03-29T09:36:12Z</time>
      </trkpt>
      <trkpt lat="50.12313" lon="4.16287">
        <ele>177.02</ele>
        <time>2015-03-29T09:36:28Z</time>
      </trkpt>
      <trkpt lat="50.1231" lon="4.16326">
        <ele>176.06</ele>
        <time>2015-03-29T09:36:44Z</time>
      </trkpt>
      <trkpt lat="50.12297" lon="4.16373">
        <ele>175.58</ele>
        <time>2015-03-29T09:37:05Z</time>
      </trkpt>
      <trkpt lat="50.12283" lon="4.16406">
        <ele>174.62</ele>
        <time>2015-03-29T09:37:21Z</time>
      </trkpt>
      <trkpt lat="50.12272" lon="4.16434">
        <ele>174.14</ele>
        <time>2015-03-29T09:37:35Z</time>
      </trkpt>
      <trkpt lat="50.12257" lon="4.16473">
        <ele>173.17</ele>
        <time>2015-03-29T09:37:54Z</time>
      </trkpt>
      <trkpt lat="50.12252" lon="4.1651">
        <ele>173.17</ele>
        <time>2015-03-29T09:38:11Z</time>
      </trkpt>
      <trkpt lat="50.12245" lon="4.16554">
        <ele>173.17</ele>
        <time>2015-03-29T09:38:30Z</time>
      </trkpt>
      <trkpt lat="50.12239" lon="4.16578">
        <ele>171.25</ele>
        <time>2015-03-29T09:38:40Z</time>
      </trkpt>
      <trkpt lat="50.12236" lon="4.16586">
        <ele>172.21</ele>
        <time>2015-03-29T09:38:44Z</time>
      </trkpt>
      <trkpt lat="50.12214" lon="4.16628">
        <ele>170.29</ele>
        <time>2015-03-29T09:39:06Z</time>
      </trkpt>
      <trkpt lat="50.12205" lon="4.16643">
        <ele>168.37</ele>
        <time>2015-03-29T09:39:14Z</time>
      </trkpt>
      <trkpt lat="50.12186" lon="4.16672">
        <ele>166.45</ele>
        <time>2015-03-29T09:39:31Z</time>
      </trkpt>
      <trkpt lat="50.12174" lon="4.16697">
        <ele>166.45</ele>
        <time>2015-03-29T09:39:44Z</time>
      </trkpt>
      <trkpt lat="50.12164" lon="4.16729">
        <ele>166.45</ele>
        <time>2015-03-29T09:39:58Z</time>
      </trkpt>
      <trkpt lat="50.12152" lon="4.1676">
        <ele>165.48</ele>
        <time>2015-03-29T09:40:13Z</time>
      </trkpt>
      <trkpt lat="50.12139" lon="4.16787">
        <ele>165.48</ele>
        <time>2015-03-29T09:40:28Z</time>
      </trkpt>
      <trkpt lat="50.1213" lon="4.16827">
        <ele>165.48</ele>
        <time>2015-03-29T09:40:45Z</time>
      </trkpt>
      <trkpt lat="50.12124" lon="4.16862">
        <ele>166.93</ele>
        <time>2015-03-29T09:41:01Z</time>
      </trkpt>
      <trkpt lat="50.12121" lon="4.16898">
        <ele>168.37</ele>
        <time>2015-03-29T09:41:18Z</time>
      </trkpt>
      <trkpt lat="50.12115" lon="4.16933">
        <ele>167.41</ele>
        <time>2015-03-29T09:41:34Z</time>
      </trkpt>
      <trkpt lat="50.1211" lon="4.16971">
        <ele>169.81</ele>
        <time>2015-03-29T09:41:51Z</time>
      </trkpt>
      <trkpt lat="50.12106" lon="4.17002">
        <ele>168.85</ele>
        <time>2015-03-29T09:42:04Z</time>
      </trkpt>
      <trkpt lat="50.12099" lon="4.17037">
        <ele>168.37</ele>
        <time>2015-03-29T09:42:19Z</time>
      </trkpt>
      <trkpt lat="50.12094" lon="4.17066">
        <ele>169.81</ele>
        <time>2015-03-29T09:42:32Z</time>
      </trkpt>
      <trkpt lat="50.12086" lon="4.17096">
        <ele>170.29</ele>
        <time>2015-03-29T09:42:46Z</time>
      </trkpt>
      <trkpt lat="50.12086" lon="4.17098">
        <ele>170.29</ele>
        <time>2015-03-29T09:42:47Z</time>
      </trkpt>
      <trkpt lat="50.12084" lon="4.17104">
        <ele>170.29</ele>
        <time>2015-03-29T09:42:50Z</time>
      </trkpt>
      <trkpt lat="50.12078" lon="4.17099">
        <ele>167.41</ele>
        <time>2015-03-29T09:42:56Z</time>
      </trkpt>
      <trkpt lat="50.12074" lon="4.17075">
        <ele>164.04</ele>
        <time>2015-03-29T09:43:08Z</time>
      </trkpt>
      <trkpt lat="50.12067" lon="4.17063">
        <ele>163.56</ele>
        <time>2015-03-29T09:43:15Z</time>
      </trkpt>
      <trkpt lat="50.12056" lon="4.17052">
        <ele>162.12</ele>
        <time>2015-03-29T09:43:26Z</time>
      </trkpt>
      <trkpt lat="50.12038" lon="4.1705">
        <ele>163.08</ele>
        <time>2015-03-29T09:43:40Z</time>
      </trkpt>
      <trkpt lat="50.12031" lon="4.17051">
        <ele>162.12</ele>
        <time>2015-03-29T09:43:45Z</time>
      </trkpt>
      <trkpt lat="50.12015" lon="4.17054">
        <ele>163.08</ele>
        <time>2015-03-29T09:43:59Z</time>
      </trkpt>
      <trkpt lat="50.1201" lon="4.17054">
        <ele>160.68</ele>
        <time>2015-03-29T09:44:06Z</time>
      </trkpt>
      <trkpt lat="50.12009" lon="4.17053">
        <ele>162.12</ele>
        <time>2015-03-29T09:44:08Z</time>
      </trkpt>
      <trkpt lat="50.12" lon="4.17048">
        <ele>162.6</ele>
        <time>2015-03-29T09:44:16Z</time>
      </trkpt>
      <trkpt lat="50.11996" lon="4.17047">
        <ele>162.6</ele>
        <time>2015-03-29T09:44:19Z</time>
      </trkpt>
      <trkpt lat="50.11992" lon="4.17047">
        <ele>161.64</ele>
        <time>2015-03-29T09:44:20Z</time>
      </trkpt>
      <trkpt lat="50.11991" lon="4.17048">
        <ele>161.64</ele>
        <time>2015-03-29T09:44:21Z</time>
      </trkpt>
      <trkpt lat="50.11989" lon="4.17048">
        <ele>161.64</ele>
        <time>2015-03-29T09:44:22Z</time>
      </trkpt>
      <trkpt lat="50.11987" lon="4.17047">
        <ele>161.64</ele>
        <time>2015-03-29T09:44:23Z</time>
      </trkpt>
      <trkpt lat="50.11986" lon="4.17045">
        <ele>161.64</ele>
        <time>2015-03-29T09:44:24Z</time>
      </trkpt>
      <trkpt lat="50.11984" lon="4.17043">
        <ele>161.64</ele>
        <time>2015-03-29T09:44:26Z</time>
      </trkpt>
      <trkpt lat="50.11983" lon="4.17041">
        <ele>161.64</ele>
        <time>2015-03-29T09:44:27Z</time>
      </trkpt>
      <trkpt lat="50.11982" lon="4.1704">
        <ele>161.64</ele>
        <time>2015-03-29T09:44:28Z</time>
      </trkpt>
      <trkpt lat="50.11981" lon="4.17039">
        <ele>161.64</ele>
        <time>2015-03-29T09:44:29Z</time>
      </trkpt>
      <trkpt lat="50.1198" lon="4.17038">
        <ele>161.64</ele>
        <time>2015-03-29T09:44:30Z</time>
      </trkpt>
      <trkpt lat="50.11979" lon="4.17037">
        <ele>163.08</ele>
        <time>2015-03-29T09:44:31Z</time>
      </trkpt>
      <trkpt lat="50.11978" lon="4.17035">
        <ele>163.08</ele>
        <time>2015-03-29T09:44:32Z</time>
      </trkpt>
      <trkpt lat="50.11966" lon="4.17015">
        <ele>165.96</ele>
        <time>2015-03-29T09:44:47Z</time>
      </trkpt>
      <trkpt lat="50.11963" lon="4.17011">
        <ele>165.48</ele>
        <time>2015-03-29T09:44:50Z</time>
      </trkpt>
      <trkpt lat="50.11962" lon="4.1701">
        <ele>165.48</ele>
        <time>2015-03-29T09:44:51Z</time>
      </trkpt>
      <trkpt lat="50.11958" lon="4.17007">
        <ele>164.52</ele>
        <time>2015-03-29T09:44:54Z</time>
      </trkpt>
      <trkpt lat="50.11956" lon="4.17007">
        <ele>164.52</ele>
        <time>2015-03-29T09:44:55Z</time>
      </trkpt>
      <trkpt lat="50.11948" lon="4.17002">
        <ele>163.56</ele>
        <time>2015-03-29T09:45:02Z</time>
      </trkpt>
      <trkpt lat="50.11947" lon="4.17001">
        <ele>163.08</ele>
        <time>2015-03-29T09:45:03Z</time>
      </trkpt>
      <trkpt lat="50.11936" lon="4.16991">
        <ele>162.6</ele>
        <time>2015-03-29T09:45:12Z</time>
      </trkpt>
      <trkpt lat="50.11933" lon="4.1699">
        <ele>162.6</ele>
        <time>2015-03-29T09:45:13Z</time>
      </trkpt>
      <trkpt lat="50.11932" lon="4.16989">
        <ele>162.6</ele>
        <time>2015-03-29T09:45:14Z</time>
      </trkpt>
      <trkpt lat="50.1193" lon="4.16987">
        <ele>162.6</ele>
        <time>2015-03-29T09:45:15Z</time>
      </trkpt>
      <trkpt lat="50.11928" lon="4.16986">
        <ele>162.6</ele>
        <time>2015-03-29T09:45:16Z</time>
      </trkpt>
      <trkpt lat="50.1191" lon="4.16975">
        <ele>161.64</ele>
        <time>2015-03-29T09:45:28Z</time>
      </trkpt>
      <trkpt lat="50.11903" lon="4.16969">
        <ele>164.52</ele>
        <time>2015-03-29T09:45:33Z</time>
      </trkpt>
      <trkpt lat="50.11902" lon="4.16968">
        <ele>164.52</ele>
        <time>2015-03-29T09:45:34Z</time>
      </trkpt>
      <trkpt lat="50.11885" lon="4.16947">
        <ele>164.52</ele>
        <time>2015-03-29T09:45:51Z</time>
      </trkpt>
      <trkpt lat="50.11882" lon="4.16943">
        <ele>165.96</ele>
        <time>2015-03-29T09:45:54Z</time>
      </trkpt>
      <trkpt lat="50.11878" lon="4.16931">
        <ele>166.45</ele>
        <time>2015-03-29T09:46:01Z</time>
      </trkpt>
      <trkpt lat="50.11877" lon="4.1693">
        <ele>166.45</ele>
        <time>2015-03-29T09:46:02Z</time>
      </trkpt>
      <trkpt lat="50.1187" lon="4.16888">
        <ele>168.85</ele>
        <time>2015-03-29T09:46:22Z</time>
      </trkpt>
      <trkpt lat="50.11869" lon="4.16875">
        <ele>168.85</ele>
        <time>2015-03-29T09:46:28Z</time>
      </trkpt>
      <trkpt lat="50.11864" lon="4.1685">
        <ele>169.81</ele>
        <time>2015-03-29T09:46:41Z</time>
      </trkpt>
      <trkpt lat="50.11857" lon="4.16818">
        <ele>170.77</ele>
        <time>2015-03-29T09:46:56Z</time>
      </trkpt>
      <trkpt lat="50.11854" lon="4.16804">
        <ele>170.77</ele>
        <time>2015-03-29T09:47:02Z</time>
      </trkpt>
      <trkpt lat="50.11848" lon="4.16785">
        <ele>172.21</ele>
        <time>2015-03-29T09:47:18Z</time>
      </trkpt>
      <trkpt lat="50.11838" lon="4.16767">
        <ele>174.62</ele>
        <time>2015-03-29T09:47:35Z</time>
      </trkpt>
      <trkpt lat="50.11821" lon="4.16765">
        <ele>177.5</ele>
        <time>2015-03-29T09:47:51Z</time>
      </trkpt>
      <trkpt lat="50.11801" lon="4.16764">
        <ele>179.42</ele>
        <time>2015-03-29T09:48:06Z</time>
      </trkpt>
      <trkpt lat="50.11784" lon="4.1677">
        <ele>181.35</ele>
        <time>2015-03-29T09:48:22Z</time>
      </trkpt>
      <trkpt lat="50.1177" lon="4.16776">
        <ele>184.23</ele>
        <time>2015-03-29T09:48:37Z</time>
      </trkpt>
      <trkpt lat="50.11753" lon="4.16779">
        <ele>187.11</ele>
        <time>2015-03-29T09:48:53Z</time>
      </trkpt>
      <trkpt lat="50.11741" lon="4.16785">
        <ele>190</ele>
        <time>2015-03-29T09:49:10Z</time>
      </trkpt>
      <trkpt lat="50.11728" lon="4.16786">
        <ele>192.4</ele>
        <time>2015-03-29T09:49:26Z</time>
      </trkpt>
      <trkpt lat="50.11715" lon="4.16787">
        <ele>195.77</ele>
        <time>2015-03-29T09:49:40Z</time>
      </trkpt>
      <trkpt lat="50.117" lon="4.16789">
        <ele>198.17</ele>
        <time>2015-03-29T09:49:55Z</time>
      </trkpt>
      <trkpt lat="50.11685" lon="4.16795">
        <ele>200.09</ele>
        <time>2015-03-29T09:50:10Z</time>
      </trkpt>
      <trkpt lat="50.11672" lon="4.16794">
        <ele>202.49</ele>
        <time>2015-03-29T09:50:25Z</time>
      </trkpt>
      <trkpt lat="50.11651" lon="4.16794">
        <ele>204.9</ele>
        <time>2015-03-29T09:50:45Z</time>
      </trkpt>
      <trkpt lat="50.11633" lon="4.16794">
        <ele>205.86</ele>
        <time>2015-03-29T09:51:03Z</time>
      </trkpt>
      <trkpt lat="50.11614" lon="4.16793">
        <ele>207.78</ele>
        <time>2015-03-29T09:51:19Z</time>
      </trkpt>
      <trkpt lat="50.11603" lon="4.16793">
        <ele>208.74</ele>
        <time>2015-03-29T09:51:27Z</time>
      </trkpt>
      <trkpt lat="50.11587" lon="4.16796">
        <ele>209.7</ele>
        <time>2015-03-29T09:51:37Z</time>
      </trkpt>
      <trkpt lat="50.11581" lon="4.16795">
        <ele>210.67</ele>
        <time>2015-03-29T09:51:42Z</time>
      </trkpt>
      <trkpt lat="50.1158" lon="4.16795">
        <ele>210.67</ele>
        <time>2015-03-29T09:51:43Z</time>
      </trkpt>
      <trkpt lat="50.11564" lon="4.16798">
        <ele>212.59</ele>
        <time>2015-03-29T09:51:58Z</time>
      </trkpt>
      <trkpt lat="50.11563" lon="4.16798">
        <ele>212.59</ele>
        <time>2015-03-29T09:51:59Z</time>
      </trkpt>
      <trkpt lat="50.11562" lon="4.16798">
        <ele>212.59</ele>
        <time>2015-03-29T09:52:00Z</time>
      </trkpt>
      <trkpt lat="50.1154" lon="4.16798">
        <ele>214.03</ele>
        <time>2015-03-29T09:52:17Z</time>
      </trkpt>
      <trkpt lat="50.11521" lon="4.16798">
        <ele>216.43</ele>
        <time>2015-03-29T09:52:35Z</time>
      </trkpt>
      <trkpt lat="50.11497" lon="4.16796">
        <ele>217.4</ele>
        <time>2015-03-29T09:52:54Z</time>
      </trkpt>
      <trkpt lat="50.11476" lon="4.16785">
        <ele>218.84</ele>
        <time>2015-03-29T09:53:13Z</time>
      </trkpt>
      <trkpt lat="50.11465" lon="4.16776">
        <ele>216.91</ele>
        <time>2015-03-29T09:53:23Z</time>
      </trkpt>
      <trkpt lat="50.1145" lon="4.16766">
        <ele>217.88</ele>
        <time>2015-03-29T09:53:35Z</time>
      </trkpt>
      <trkpt lat="50.11433" lon="4.16752">
        <ele>219.32</ele>
        <time>2015-03-29T09:53:48Z</time>
      </trkpt>
      <trkpt lat="50.11428" lon="4.16748">
        <ele>217.4</ele>
        <time>2015-03-29T09:53:52Z</time>
      </trkpt>
      <trkpt lat="50.11421" lon="4.16742">
        <ele>218.84</ele>
        <time>2015-03-29T09:54:00Z</time>
      </trkpt>
      <trkpt lat="50.11404" lon="4.16728">
        <ele>218.84</ele>
        <time>2015-03-29T09:54:15Z</time>
      </trkpt>
      <trkpt lat="50.11383" lon="4.16711">
        <ele>220.28</ele>
        <time>2015-03-29T09:54:32Z</time>
      </trkpt>
      <trkpt lat="50.11369" lon="4.167">
        <ele>220.76</ele>
        <time>2015-03-29T09:54:48Z</time>
      </trkpt>
      <trkpt lat="50.11344" lon="4.1669">
        <ele>221.24</ele>
        <time>2015-03-29T09:55:09Z</time>
      </trkpt>
      <trkpt lat="50.11304" lon="4.16668">
        <ele>221.72</ele>
        <time>2015-03-29T09:55:34Z</time>
      </trkpt>
      <trkpt lat="50.11272" lon="4.16657">
        <ele>222.68</ele>
        <time>2015-03-29T09:55:55Z</time>
      </trkpt>
      <trkpt lat="50.11261" lon="4.16651">
        <ele>219.8</ele>
        <time>2015-03-29T09:56:04Z</time>
      </trkpt>
      <trkpt lat="50.11255" lon="4.16647">
        <ele>222.68</ele>
        <time>2015-03-29T09:56:10Z</time>
      </trkpt>
      <trkpt lat="50.1124" lon="4.16637">
        <ele>222.2</ele>
        <time>2015-03-29T09:56:24Z</time>
      </trkpt>
      <trkpt lat="50.11229" lon="4.16632">
        <ele>221.24</ele>
        <time>2015-03-29T09:56:33Z</time>
      </trkpt>
      <trkpt lat="50.11208" lon="4.16622">
        <ele>224.61</ele>
        <time>2015-03-29T09:56:50Z</time>
      </trkpt>
      <trkpt lat="50.112" lon="4.16616">
        <ele>224.12</ele>
        <time>2015-03-29T09:56:57Z</time>
      </trkpt>
      <trkpt lat="50.11198" lon="4.16614">
        <ele>224.12</ele>
        <time>2015-03-29T09:56:58Z</time>
      </trkpt>
      <trkpt lat="50.11197" lon="4.16614">
        <ele>224.12</ele>
        <time>2015-03-29T09:56:59Z</time>
      </trkpt>
      <trkpt lat="50.11189" lon="4.16607">
        <ele>222.68</ele>
        <time>2015-03-29T09:57:07Z</time>
      </trkpt>
      <trkpt lat="50.1117" lon="4.16595">
        <ele>223.64</ele>
        <time>2015-03-29T09:57:26Z</time>
      </trkpt>
      <trkpt lat="50.11154" lon="4.16585">
        <ele>223.16</ele>
        <time>2015-03-29T09:57:39Z</time>
      </trkpt>
      <trkpt lat="50.11131" lon="4.16569">
        <ele>223.16</ele>
        <time>2015-03-29T09:58:00Z</time>
      </trkpt>
      <trkpt lat="50.11106" lon="4.1655">
        <ele>223.16</ele>
        <time>2015-03-29T09:58:19Z</time>
      </trkpt>
      <trkpt lat="50.11091" lon="4.16528">
        <ele>223.16</ele>
        <time>2015-03-29T09:58:38Z</time>
      </trkpt>
      <trkpt lat="50.11088" lon="4.16506">
        <ele>224.12</ele>
        <time>2015-03-29T09:58:54Z</time>
      </trkpt>
      <trkpt lat="50.11081" lon="4.1649">
        <ele>224.12</ele>
        <time>2015-03-29T09:59:08Z</time>
      </trkpt>
      <trkpt lat="50.11074" lon="4.16472">
        <ele>224.12</ele>
        <time>2015-03-29T09:59:21Z</time>
      </trkpt>
      <trkpt lat="50.11062" lon="4.16447">
        <ele>224.61</ele>
        <time>2015-03-29T09:59:39Z</time>
      </trkpt>
      <trkpt lat="50.11053" lon="4.16426">
        <ele>224.12</ele>
        <time>2015-03-29T09:59:54Z</time>
      </trkpt>
      <trkpt lat="50.11054" lon="4.16392">
        <ele>224.12</ele>
        <time>2015-03-29T10:00:10Z</time>
      </trkpt>
      <trkpt lat="50.11053" lon="4.16362">
        <ele>224.61</ele>
        <time>2015-03-29T10:00:27Z</time>
      </trkpt>
      <trkpt lat="50.11046" lon="4.16329">
        <ele>225.09</ele>
        <time>2015-03-29T10:00:44Z</time>
      </trkpt>
      <trkpt lat="50.11038" lon="4.16295">
        <ele>225.09</ele>
        <time>2015-03-29T10:01:00Z</time>
      </trkpt>
      <trkpt lat="50.11037" lon="4.16268">
        <ele>223.64</ele>
        <time>2015-03-29T10:01:14Z</time>
      </trkpt>
      <trkpt lat="50.11028" lon="4.16236">
        <ele>223.64</ele>
        <time>2015-03-29T10:01:30Z</time>
      </trkpt>
      <trkpt lat="50.11021" lon="4.16214">
        <ele>222.68</ele>
        <time>2015-03-29T10:01:44Z</time>
      </trkpt>
      <trkpt lat="50.11013" lon="4.16191">
        <ele>222.68</ele>
        <time>2015-03-29T10:01:53Z</time>
      </trkpt>
      <trkpt lat="50.11006" lon="4.16158">
        <ele>221.72</ele>
        <time>2015-03-29T10:02:10Z</time>
      </trkpt>
      <trkpt lat="50.11012" lon="4.16129">
        <ele>221.72</ele>
        <time>2015-03-29T10:02:28Z</time>
      </trkpt>
      <trkpt lat="50.11018" lon="4.16103">
        <ele>220.76</ele>
        <time>2015-03-29T10:02:41Z</time>
      </trkpt>
      <trkpt lat="50.11022" lon="4.16078">
        <ele>220.76</ele>
        <time>2015-03-29T10:02:55Z</time>
      </trkpt>
      <trkpt lat="50.11022" lon="4.1605">
        <ele>219.8</ele>
        <time>2015-03-29T10:03:09Z</time>
      </trkpt>
      <trkpt lat="50.11015" lon="4.16029">
        <ele>218.84</ele>
        <time>2015-03-29T10:03:23Z</time>
      </trkpt>
      <trkpt lat="50.1101" lon="4.16022">
        <ele>218.36</ele>
        <time>2015-03-29T10:03:28Z</time>
      </trkpt>
      <trkpt lat="50.1101" lon="4.16001">
        <ele>218.36</ele>
        <time>2015-03-29T10:03:39Z</time>
      </trkpt>
      <trkpt lat="50.11022" lon="4.15968">
        <ele>219.8</ele>
        <time>2015-03-29T10:03:53Z</time>
      </trkpt>
      <trkpt lat="50.11037" lon="4.15922">
        <ele>218.36</ele>
        <time>2015-03-29T10:04:12Z</time>
      </trkpt>
      <trkpt lat="50.11052" lon="4.15878">
        <ele>218.36</ele>
        <time>2015-03-29T10:04:31Z</time>
      </trkpt>
      <trkpt lat="50.11068" lon="4.15836">
        <ele>217.4</ele>
        <time>2015-03-29T10:04:52Z</time>
      </trkpt>
      <trkpt lat="50.11078" lon="4.15806">
        <ele>218.36</ele>
        <time>2015-03-29T10:05:10Z</time>
      </trkpt>
      <trkpt lat="50.11089" lon="4.15781">
        <ele>218.36</ele>
        <time>2015-03-29T10:05:23Z</time>
      </trkpt>
      <trkpt lat="50.11108" lon="4.15745">
        <ele>218.36</ele>
        <time>2015-03-29T10:05:44Z</time>
      </trkpt>
      <trkpt lat="50.11124" lon="4.1571">
        <ele>218.36</ele>
        <time>2015-03-29T10:06:03Z</time>
      </trkpt>
      <trkpt lat="50.11137" lon="4.15685">
        <ele>218.36</ele>
        <time>2015-03-29T10:06:19Z</time>
      </trkpt>
      <trkpt lat="50.11141" lon="4.15679">
        <ele>218.36</ele>
        <time>2015-03-29T10:06:22Z</time>
      </trkpt>
      <trkpt lat="50.11143" lon="4.15664">
        <ele>216.91</ele>
        <time>2015-03-29T10:06:29Z</time>
      </trkpt>
      <trkpt lat="50.11148" lon="4.15644">
        <ele>216.91</ele>
        <time>2015-03-29T10:06:39Z</time>
      </trkpt>
      <trkpt lat="50.11149" lon="4.1564">
        <ele>218.36</ele>
        <time>2015-03-29T10:06:41Z</time>
      </trkpt>
      <trkpt lat="50.11157" lon="4.15624">
        <ele>218.36</ele>
        <time>2015-03-29T10:06:55Z</time>
      </trkpt>
      <trkpt lat="50.11171" lon="4.156">
        <ele>218.84</ele>
        <time>2015-03-29T10:07:11Z</time>
      </trkpt>
      <trkpt lat="50.11181" lon="4.15576">
        <ele>218.84</ele>
        <time>2015-03-29T10:07:26Z</time>
      </trkpt>
      <trkpt lat="50.11197" lon="4.15536">
        <ele>218.36</ele>
        <time>2015-03-29T10:07:46Z</time>
      </trkpt>
      <trkpt lat="50.11208" lon="4.15503">
        <ele>218.36</ele>
        <time>2015-03-29T10:08:02Z</time>
      </trkpt>
      <trkpt lat="50.11216" lon="4.15485">
        <ele>216.91</ele>
        <time>2015-03-29T10:08:13Z</time>
      </trkpt>
      <trkpt lat="50.11233" lon="4.15446">
        <ele>216.91</ele>
        <time>2015-03-29T10:08:33Z</time>
      </trkpt>
      <trkpt lat="50.11246" lon="4.15411">
        <ele>215.95</ele>
        <time>2015-03-29T10:08:49Z</time>
      </trkpt>
      <trkpt lat="50.11256" lon="4.15391">
        <ele>214.51</ele>
        <time>2015-03-29T10:09:04Z</time>
      </trkpt>
      <trkpt lat="50.11258" lon="4.15386">
        <ele>214.51</ele>
        <time>2015-03-29T10:09:07Z</time>
      </trkpt>
      <trkpt lat="50.11278" lon="4.15368">
        <ele>213.55</ele>
        <time>2015-03-29T10:09:23Z</time>
      </trkpt>
      <trkpt lat="50.11301" lon="4.15344">
        <ele>211.15</ele>
        <time>2015-03-29T10:09:45Z</time>
      </trkpt>
      <trkpt lat="50.11306" lon="4.1534">
        <ele>212.59</ele>
        <time>2015-03-29T10:09:49Z</time>
      </trkpt>
      <trkpt lat="50.11311" lon="4.15335">
        <ele>212.59</ele>
        <time>2015-03-29T10:09:53Z</time>
      </trkpt>
      <trkpt lat="50.11314" lon="4.15332">
        <ele>211.15</ele>
        <time>2015-03-29T10:09:55Z</time>
      </trkpt>
      <trkpt lat="50.11314" lon="4.15326">
        <ele>210.19</ele>
        <time>2015-03-29T10:09:58Z</time>
      </trkpt>
      <trkpt lat="50.11314" lon="4.1532">
        <ele>211.63</ele>
        <time>2015-03-29T10:10:01Z</time>
      </trkpt>
      <trkpt lat="50.11314" lon="4.15296">
        <ele>210.67</ele>
        <time>2015-03-29T10:10:15Z</time>
      </trkpt>
      <trkpt lat="50.11318" lon="4.15271">
        <ele>210.19</ele>
        <time>2015-03-29T10:10:26Z</time>
      </trkpt>
      <trkpt lat="50.11319" lon="4.15258">
        <ele>210.19</ele>
        <time>2015-03-29T10:10:32Z</time>
      </trkpt>
      <trkpt lat="50.11322" lon="4.15241">
        <ele>209.22</ele>
        <time>2015-03-29T10:10:40Z</time>
      </trkpt>
      <trkpt lat="50.11323" lon="4.15232">
        <ele>209.22</ele>
        <time>2015-03-29T10:10:44Z</time>
      </trkpt>
      <trkpt lat="50.11326" lon="4.15188">
        <ele>207.78</ele>
        <time>2015-03-29T10:11:01Z</time>
      </trkpt>
      <trkpt lat="50.11329" lon="4.15159">
        <ele>205.86</ele>
        <time>2015-03-29T10:11:13Z</time>
      </trkpt>
      <trkpt lat="50.11333" lon="4.15135">
        <ele>204.42</ele>
        <time>2015-03-29T10:11:25Z</time>
      </trkpt>
      <trkpt lat="50.11334" lon="4.15111">
        <ele>205.38</ele>
        <time>2015-03-29T10:11:36Z</time>
      </trkpt>
      <trkpt lat="50.11337" lon="4.15091">
        <ele>205.86</ele>
        <time>2015-03-29T10:11:44Z</time>
      </trkpt>
      <trkpt lat="50.11338" lon="4.15082">
        <ele>204.42</ele>
        <time>2015-03-29T10:11:49Z</time>
      </trkpt>
      <trkpt lat="50.11338" lon="4.1508">
        <ele>204.42</ele>
        <time>2015-03-29T10:11:50Z</time>
      </trkpt>
      <trkpt lat="50.11339" lon="4.15069">
        <ele>202.98</ele>
        <time>2015-03-29T10:11:54Z</time>
      </trkpt>
      <trkpt lat="50.1134" lon="4.15028">
        <ele>200.09</ele>
        <time>2015-03-29T10:12:12Z</time>
      </trkpt>
      <trkpt lat="50.11339" lon="4.14989">
        <ele>198.17</ele>
        <time>2015-03-29T10:12:25Z</time>
      </trkpt>
      <trkpt lat="50.11339" lon="4.14965">
        <ele>196.25</ele>
        <time>2015-03-29T10:12:35Z</time>
      </trkpt>
      <trkpt lat="50.1134" lon="4.14931">
        <ele>193.36</ele>
        <time>2015-03-29T10:12:50Z</time>
      </trkpt>
      <trkpt lat="50.1134" lon="4.14901">
        <ele>190.96</ele>
        <time>2015-03-29T10:13:02Z</time>
      </trkpt>
      <trkpt lat="50.11337" lon="4.14866">
        <ele>189.52</ele>
        <time>2015-03-29T10:13:18Z</time>
      </trkpt>
      <trkpt lat="50.11332" lon="4.14835">
        <ele>186.63</ele>
        <time>2015-03-29T10:13:35Z</time>
      </trkpt>
      <trkpt lat="50.11329" lon="4.1483">
        <ele>185.67</ele>
        <time>2015-03-29T10:13:38Z</time>
      </trkpt>
      <trkpt lat="50.11327" lon="4.14828">
        <ele>184.71</ele>
        <time>2015-03-29T10:13:39Z</time>
      </trkpt>
      <trkpt lat="50.11321" lon="4.1481">
        <ele>181.35</ele>
        <time>2015-03-29T10:13:53Z</time>
      </trkpt>
      <trkpt lat="50.11324" lon="4.14795">
        <ele>178.46</ele>
        <time>2015-03-29T10:14:03Z</time>
      </trkpt>
      <trkpt lat="50.11329" lon="4.14769">
        <ele>175.1</ele>
        <time>2015-03-29T10:14:15Z</time>
      </trkpt>
      <trkpt lat="50.11333" lon="4.14745">
        <ele>172.21</ele>
        <time>2015-03-29T10:14:26Z</time>
      </trkpt>
      <trkpt lat="50.1134" lon="4.14734">
        <ele>170.29</ele>
        <time>2015-03-29T10:14:35Z</time>
      </trkpt>
      <trkpt lat="50.11345" lon="4.14725">
        <ele>167.41</ele>
        <time>2015-03-29T10:14:49Z</time>
      </trkpt>
      <trkpt lat="50.11359" lon="4.14702">
        <ele>165</ele>
        <time>2015-03-29T10:15:06Z</time>
      </trkpt>
      <trkpt lat="50.11358" lon="4.14683">
        <ele>163.08</ele>
        <time>2015-03-29T10:15:22Z</time>
      </trkpt>
      <trkpt lat="50.11356" lon="4.14663">
        <ele>164.04</ele>
        <time>2015-03-29T10:15:35Z</time>
      </trkpt>
      <trkpt lat="50.11355" lon="4.14634">
        <ele>165.96</ele>
        <time>2015-03-29T10:15:54Z</time>
      </trkpt>
      <trkpt lat="50.11344" lon="4.146">
        <ele>166.45</ele>
        <time>2015-03-29T10:16:11Z</time>
      </trkpt>
      <trkpt lat="50.1134" lon="4.14569">
        <ele>166.45</ele>
        <time>2015-03-29T10:16:26Z</time>
      </trkpt>
      <trkpt lat="50.11338" lon="4.14556">
        <ele>166.93</ele>
        <time>2015-03-29T10:16:35Z</time>
      </trkpt>
      <trkpt lat="50.1133" lon="4.14522">
        <ele>168.37</ele>
        <time>2015-03-29T10:16:51Z</time>
      </trkpt>
      <trkpt lat="50.11326" lon="4.14504">
        <ele>169.81</ele>
        <time>2015-03-29T10:17:06Z</time>
      </trkpt>
      <trkpt lat="50.11321" lon="4.14473">
        <ele>169.81</ele>
        <time>2015-03-29T10:17:21Z</time>
      </trkpt>
      <trkpt lat="50.11319" lon="4.14445">
        <ele>171.25</ele>
        <time>2015-03-29T10:17:40Z</time>
      </trkpt>
      <trkpt lat="50.11316" lon="4.14416">
        <ele>170.29</ele>
        <time>2015-03-29T10:17:58Z</time>
      </trkpt>
      <trkpt lat="50.11304" lon="4.14377">
        <ele>172.69</ele>
        <time>2015-03-29T10:18:16Z</time>
      </trkpt>
      <trkpt lat="50.11302" lon="4.14344">
        <ele>172.69</ele>
        <time>2015-03-29T10:18:33Z</time>
      </trkpt>
      <trkpt lat="50.11298" lon="4.14293">
        <ele>172.69</ele>
        <time>2015-03-29T10:18:50Z</time>
      </trkpt>
      <trkpt lat="50.11297" lon="4.14252">
        <ele>172.69</ele>
        <time>2015-03-29T10:19:08Z</time>
      </trkpt>
      <trkpt lat="50.11299" lon="4.14217">
        <ele>172.69</ele>
        <time>2015-03-29T10:19:27Z</time>
      </trkpt>
      <trkpt lat="50.11299" lon="4.14177">
        <ele>174.14</ele>
        <time>2015-03-29T10:19:44Z</time>
      </trkpt>
      <trkpt lat="50.11299" lon="4.14143">
        <ele>174.62</ele>
        <time>2015-03-29T10:20:01Z</time>
      </trkpt>
      <trkpt lat="50.11295" lon="4.14107">
        <ele>177.02</ele>
        <time>2015-03-29T10:20:20Z</time>
      </trkpt>
      <trkpt lat="50.11287" lon="4.1409">
        <ele>179.9</ele>
        <time>2015-03-29T10:20:31Z</time>
      </trkpt>
      <trkpt lat="50.11276" lon="4.14079">
        <ele>182.31</ele>
        <time>2015-03-29T10:20:46Z</time>
      </trkpt>
      <trkpt lat="50.11262" lon="4.14057">
        <ele>184.71</ele>
        <time>2015-03-29T10:21:02Z</time>
      </trkpt>
      <trkpt lat="50.11261" lon="4.14054">
        <ele>184.71</ele>
        <time>2015-03-29T10:21:04Z</time>
      </trkpt>
      <trkpt lat="50.11248" lon="4.14026">
        <ele>184.71</ele>
        <time>2015-03-29T10:21:21Z</time>
      </trkpt>
      <trkpt lat="50.11245" lon="4.13998">
        <ele>185.67</ele>
        <time>2015-03-29T10:21:36Z</time>
      </trkpt>
      <trkpt lat="50.11248" lon="4.13972">
        <ele>186.63</ele>
        <time>2015-03-29T10:21:50Z</time>
      </trkpt>
      <trkpt lat="50.11251" lon="4.13951">
        <ele>185.19</ele>
        <time>2015-03-29T10:21:59Z</time>
      </trkpt>
      <trkpt lat="50.11251" lon="4.13937">
        <ele>184.71</ele>
        <time>2015-03-29T10:22:08Z</time>
      </trkpt>
      <trkpt lat="50.11251" lon="4.13922">
        <ele>184.71</ele>
        <time>2015-03-29T10:22:16Z</time>
      </trkpt>
      <trkpt lat="50.11253" lon="4.1389">
        <ele>183.27</ele>
        <time>2015-03-29T10:22:33Z</time>
      </trkpt>
      <trkpt lat="50.11256" lon="4.1386">
        <ele>179.9</ele>
        <time>2015-03-29T10:22:49Z</time>
      </trkpt>
      <trkpt lat="50.11264" lon="4.13826">
        <ele>176.54</ele>
        <time>2015-03-29T10:23:05Z</time>
      </trkpt>
      <trkpt lat="50.11265" lon="4.13808">
        <ele>175.58</ele>
        <time>2015-03-29T10:23:12Z</time>
      </trkpt>
      <trkpt lat="50.11265" lon="4.138">
        <ele>175.58</ele>
        <time>2015-03-29T10:23:16Z</time>
      </trkpt>
      <trkpt lat="50.11267" lon="4.13803">
        <ele>174.14</ele>
        <time>2015-03-29T10:23:18Z</time>
      </trkpt>
      <trkpt lat="50.11269" lon="4.13804">
        <ele>176.06</ele>
        <time>2015-03-29T10:23:21Z</time>
      </trkpt>
      <trkpt lat="50.11273" lon="4.13811">
        <ele>174.62</ele>
        <time>2015-03-29T10:23:28Z</time>
      </trkpt>
      <trkpt lat="50.11274" lon="4.13812">
        <ele>174.62</ele>
        <time>2015-03-29T10:23:29Z</time>
      </trkpt>
      <trkpt lat="50.11281" lon="4.13844">
        <ele>171.73</ele>
        <time>2015-03-29T10:23:47Z</time>
      </trkpt>
      <trkpt lat="50.1129" lon="4.13874">
        <ele>169.81</ele>
        <time>2015-03-29T10:24:05Z</time>
      </trkpt>
      <trkpt lat="50.11295" lon="4.13874">
        <ele>168.37</ele>
        <time>2015-03-29T10:24:10Z</time>
      </trkpt>
      <trkpt lat="50.11296" lon="4.1387">
        <ele>168.37</ele>
        <time>2015-03-29T10:24:13Z</time>
      </trkpt>
      <trkpt lat="50.11296" lon="4.1385">
        <ele>168.37</ele>
        <time>2015-03-29T10:24:23Z</time>
      </trkpt>
      <trkpt lat="50.11296" lon="4.1382">
        <ele>166.93</ele>
        <time>2015-03-29T10:24:39Z</time>
      </trkpt>
      <trkpt lat="50.11302" lon="4.13798">
        <ele>165.96</ele>
        <time>2015-03-29T10:24:51Z</time>
      </trkpt>
      <trkpt lat="50.11311" lon="4.13748">
        <ele>165.48</ele>
        <time>2015-03-29T10:25:07Z</time>
      </trkpt>
      <trkpt lat="50.11309" lon="4.13701">
        <ele>164.04</ele>
        <time>2015-03-29T10:25:24Z</time>
      </trkpt>
      <trkpt lat="50.11313" lon="4.13652">
        <ele>163.08</ele>
        <time>2015-03-29T10:25:44Z</time>
      </trkpt>
      <trkpt lat="50.11315" lon="4.13616">
        <ele>163.08</ele>
        <time>2015-03-29T10:26:00Z</time>
      </trkpt>
      <trkpt lat="50.11318" lon="4.13575">
        <ele>161.64</ele>
        <time>2015-03-29T10:26:17Z</time>
      </trkpt>
      <trkpt lat="50.11317" lon="4.13541">
        <ele>161.64</ele>
        <time>2015-03-29T10:26:32Z</time>
      </trkpt>
      <trkpt lat="50.11303" lon="4.13502">
        <ele>160.68</ele>
        <time>2015-03-29T10:26:53Z</time>
      </trkpt>
      <trkpt lat="50.11286" lon="4.13468">
        <ele>160.68</ele>
        <time>2015-03-29T10:27:11Z</time>
      </trkpt>
      <trkpt lat="50.11275" lon="4.13439">
        <ele>162.12</ele>
        <time>2015-03-29T10:27:24Z</time>
      </trkpt>
      <trkpt lat="50.11267" lon="4.13412">
        <ele>161.16</ele>
        <time>2015-03-29T10:27:36Z</time>
      </trkpt>
      <trkpt lat="50.11265" lon="4.13406">
        <ele>163.08</ele>
        <time>2015-03-29T10:27:39Z</time>
      </trkpt>
      <trkpt lat="50.11263" lon="4.134">
        <ele>164.52</ele>
        <time>2015-03-29T10:27:42Z</time>
      </trkpt>
      <trkpt lat="50.11259" lon="4.13391">
        <ele>161.64</ele>
        <time>2015-03-29T10:27:48Z</time>
      </trkpt>
      <trkpt lat="50.11257" lon="4.13387">
        <ele>160.68</ele>
        <time>2015-03-29T10:27:50Z</time>
      </trkpt>
      <trkpt lat="50.11253" lon="4.13376">
        <ele>163.56</ele>
        <time>2015-03-29T10:27:56Z</time>
      </trkpt>
      <trkpt lat="50.11253" lon="4.13374">
        <ele>163.56</ele>
        <time>2015-03-29T10:27:57Z</time>
      </trkpt>
      <trkpt lat="50.11248" lon="4.13353">
        <ele>162.12</ele>
        <time>2015-03-29T10:28:08Z</time>
      </trkpt>
      <trkpt lat="50.11244" lon="4.13329">
        <ele>164.52</ele>
        <time>2015-03-29T10:28:18Z</time>
      </trkpt>
      <trkpt lat="50.11244" lon="4.13326">
        <ele>164.52</ele>
        <time>2015-03-29T10:28:19Z</time>
      </trkpt>
      <trkpt lat="50.1126" lon="4.13306">
        <ele>164.52</ele>
        <time>2015-03-29T10:28:34Z</time>
      </trkpt>
      <trkpt lat="50.11264" lon="4.13302">
        <ele>164.52</ele>
        <time>2015-03-29T10:28:37Z</time>
      </trkpt>
      <trkpt lat="50.11275" lon="4.13278">
        <ele>164.52</ele>
        <time>2015-03-29T10:28:50Z</time>
      </trkpt>
      <trkpt lat="50.1128" lon="4.13246">
        <ele>165.48</ele>
        <time>2015-03-29T10:29:06Z</time>
      </trkpt>
      <trkpt lat="50.11277" lon="4.13235">
        <ele>165.96</ele>
        <time>2015-03-29T10:29:11Z</time>
      </trkpt>
      <trkpt lat="50.11268" lon="4.13202">
        <ele>166.93</ele>
        <time>2015-03-29T10:29:28Z</time>
      </trkpt>
      <trkpt lat="50.11264" lon="4.13197">
        <ele>166.93</ele>
        <time>2015-03-29T10:29:31Z</time>
      </trkpt>
      <trkpt lat="50.11247" lon="4.1318">
        <ele>169.81</ele>
        <time>2015-03-29T10:29:45Z</time>
      </trkpt>
      <trkpt lat="50.11242" lon="4.13155">
        <ele>169.81</ele>
        <time>2015-03-29T10:30:00Z</time>
      </trkpt>
      <trkpt lat="50.11249" lon="4.13128">
        <ele>168.85</ele>
        <time>2015-03-29T10:30:17Z</time>
      </trkpt>
      <trkpt lat="50.11263" lon="4.13095">
        <ele>165.48</ele>
        <time>2015-03-29T10:30:34Z</time>
      </trkpt>
      <trkpt lat="50.11269" lon="4.13083">
        <ele>165.48</ele>
        <time>2015-03-29T10:30:41Z</time>
      </trkpt>
      <trkpt lat="50.11276" lon="4.13083">
        <ele>165.48</ele>
        <time>2015-03-29T10:30:57Z</time>
      </trkpt>
      <trkpt lat="50.11286" lon="4.1311">
        <ele>165</ele>
        <time>2015-03-29T10:31:12Z</time>
      </trkpt>
      <trkpt lat="50.11292" lon="4.13128">
        <ele>164.52</ele>
        <time>2015-03-29T10:31:22Z</time>
      </trkpt>
      <trkpt lat="50.11295" lon="4.13137">
        <ele>164.52</ele>
        <time>2015-03-29T10:31:27Z</time>
      </trkpt>
      <trkpt lat="50.11311" lon="4.13162">
        <ele>163.56</ele>
        <time>2015-03-29T10:31:40Z</time>
      </trkpt>
      <trkpt lat="50.11314" lon="4.13168">
        <ele>163.56</ele>
        <time>2015-03-29T10:31:44Z</time>
      </trkpt>
      <trkpt lat="50.11319" lon="4.13177">
        <ele>163.56</ele>
        <time>2015-03-29T10:31:48Z</time>
      </trkpt>
      <trkpt lat="50.11335" lon="4.13196">
        <ele>166.45</ele>
        <time>2015-03-29T10:32:02Z</time>
      </trkpt>
      <trkpt lat="50.11337" lon="4.13197">
        <ele>166.45</ele>
        <time>2015-03-29T10:32:04Z</time>
      </trkpt>
      <trkpt lat="50.1134" lon="4.13197">
        <ele>166.45</ele>
        <time>2015-03-29T10:32:07Z</time>
      </trkpt>
      <trkpt lat="50.11362" lon="4.13183">
        <ele>164.52</ele>
        <time>2015-03-29T10:32:24Z</time>
      </trkpt>
      <trkpt lat="50.11371" lon="4.13177">
        <ele>164.52</ele>
        <time>2015-03-29T10:32:30Z</time>
      </trkpt>
      <trkpt lat="50.11385" lon="4.13162">
        <ele>164.52</ele>
        <time>2015-03-29T10:32:41Z</time>
      </trkpt>
      <trkpt lat="50.11397" lon="4.13143">
        <ele>164.52</ele>
        <time>2015-03-29T10:32:54Z</time>
      </trkpt>
      <trkpt lat="50.11404" lon="4.13136">
        <ele>164.52</ele>
        <time>2015-03-29T10:33:01Z</time>
      </trkpt>
      <trkpt lat="50.11408" lon="4.13129">
        <ele>164.52</ele>
        <time>2015-03-29T10:33:04Z</time>
      </trkpt>
      <trkpt lat="50.11421" lon="4.13105">
        <ele>163.56</ele>
        <time>2015-03-29T10:33:18Z</time>
      </trkpt>
      <trkpt lat="50.11427" lon="4.13098">
        <ele>163.56</ele>
        <time>2015-03-29T10:33:23Z</time>
      </trkpt>
      <trkpt lat="50.11435" lon="4.13086">
        <ele>164.52</ele>
        <time>2015-03-29T10:33:31Z</time>
      </trkpt>
      <trkpt lat="50.11449" lon="4.13064">
        <ele>165</ele>
        <time>2015-03-29T10:33:45Z</time>
      </trkpt>
      <trkpt lat="50.11452" lon="4.13059">
        <ele>165</ele>
        <time>2015-03-29T10:33:48Z</time>
      </trkpt>
      <trkpt lat="50.11466" lon="4.13031">
        <ele>165</ele>
        <time>2015-03-29T10:34:04Z</time>
      </trkpt>
      <trkpt lat="50.11468" lon="4.13024">
        <ele>165</ele>
        <time>2015-03-29T10:34:07Z</time>
      </trkpt>
      <trkpt lat="50.11475" lon="4.13">
        <ele>165</ele>
        <time>2015-03-29T10:34:22Z</time>
      </trkpt>
      <trkpt lat="50.11488" lon="4.1298">
        <ele>165.96</ele>
        <time>2015-03-29T10:34:39Z</time>
      </trkpt>
      <trkpt lat="50.11501" lon="4.1295">
        <ele>166.45</ele>
        <time>2015-03-29T10:34:53Z</time>
      </trkpt>
      <trkpt lat="50.11501" lon="4.12949">
        <ele>166.45</ele>
        <time>2015-03-29T10:34:54Z</time>
      </trkpt>
      <trkpt lat="50.11503" lon="4.1294">
        <ele>167.89</ele>
        <time>2015-03-29T10:34:58Z</time>
      </trkpt>
      <trkpt lat="50.11505" lon="4.12929">
        <ele>171.25</ele>
        <time>2015-03-29T10:35:04Z</time>
      </trkpt>
      <trkpt lat="50.1151" lon="4.12915">
        <ele>174.14</ele>
        <time>2015-03-29T10:35:14Z</time>
      </trkpt>
      <trkpt lat="50.11511" lon="4.12911">
        <ele>175.1</ele>
        <time>2015-03-29T10:35:17Z</time>
      </trkpt>
      <trkpt lat="50.11513" lon="4.12902">
        <ele>176.54</ele>
        <time>2015-03-29T10:35:23Z</time>
      </trkpt>
      <trkpt lat="50.11521" lon="4.1289">
        <ele>179.9</ele>
        <time>2015-03-29T10:35:33Z</time>
      </trkpt>
      <trkpt lat="50.11529" lon="4.12871">
        <ele>181.83</ele>
        <time>2015-03-29T10:35:48Z</time>
      </trkpt>
      <trkpt lat="50.11536" lon="4.12858">
        <ele>184.23</ele>
        <time>2015-03-29T10:36:00Z</time>
      </trkpt>
      <trkpt lat="50.11538" lon="4.12854">
        <ele>184.23</ele>
        <time>2015-03-29T10:36:04Z</time>
      </trkpt>
      <trkpt lat="50.11554" lon="4.12846">
        <ele>185.67</ele>
        <time>2015-03-29T10:36:19Z</time>
      </trkpt>
      <trkpt lat="50.11579" lon="4.12839">
        <ele>185.67</ele>
        <time>2015-03-29T10:36:37Z</time>
      </trkpt>
      <trkpt lat="50.11585" lon="4.12837">
        <ele>185.67</ele>
        <time>2015-03-29T10:36:41Z</time>
      </trkpt>
      <trkpt lat="50.11592" lon="4.12836">
        <ele>184.23</ele>
        <time>2015-03-29T10:36:47Z</time>
      </trkpt>
      <trkpt lat="50.11613" lon="4.1283">
        <ele>181.35</ele>
        <time>2015-03-29T10:37:04Z</time>
      </trkpt>
      <trkpt lat="50.11629" lon="4.12825">
        <ele>177.98</ele>
        <time>2015-03-29T10:37:17Z</time>
      </trkpt>
      <trkpt lat="50.11647" lon="4.12821">
        <ele>175.58</ele>
        <time>2015-03-29T10:37:31Z</time>
      </trkpt>
      <trkpt lat="50.11665" lon="4.12813">
        <ele>172.21</ele>
        <time>2015-03-29T10:37:45Z</time>
      </trkpt>
      <trkpt lat="50.11667" lon="4.12784">
        <ele>170.29</ele>
        <time>2015-03-29T10:38:04Z</time>
      </trkpt>
      <trkpt lat="50.11668" lon="4.12775">
        <ele>166.93</ele>
        <time>2015-03-29T10:38:11Z</time>
      </trkpt>
      <trkpt lat="50.11675" lon="4.12756">
        <ele>163.56</ele>
        <time>2015-03-29T10:38:20Z</time>
      </trkpt>
      <trkpt lat="50.11677" lon="4.12751">
        <ele>163.56</ele>
        <time>2015-03-29T10:38:22Z</time>
      </trkpt>
      <trkpt lat="50.1169" lon="4.12749">
        <ele>165.48</ele>
        <time>2015-03-29T10:38:33Z</time>
      </trkpt>
      <trkpt lat="50.11713" lon="4.12759">
        <ele>167.89</ele>
        <time>2015-03-29T10:38:50Z</time>
      </trkpt>
      <trkpt lat="50.11732" lon="4.12767">
        <ele>169.81</ele>
        <time>2015-03-29T10:39:03Z</time>
      </trkpt>
      <trkpt lat="50.11741" lon="4.12767">
        <ele>172.21</ele>
        <time>2015-03-29T10:39:10Z</time>
      </trkpt>
      <trkpt lat="50.11753" lon="4.12756">
        <ele>173.17</ele>
        <time>2015-03-29T10:39:26Z</time>
      </trkpt>
      <trkpt lat="50.11761" lon="4.12747">
        <ele>173.17</ele>
        <time>2015-03-29T10:39:33Z</time>
      </trkpt>
      <trkpt lat="50.11772" lon="4.12723">
        <ele>174.62</ele>
        <time>2015-03-29T10:39:50Z</time>
      </trkpt>
      <trkpt lat="50.11781" lon="4.12688">
        <ele>175.58</ele>
        <time>2015-03-29T10:40:07Z</time>
      </trkpt>
      <trkpt lat="50.11786" lon="4.12659">
        <ele>175.58</ele>
        <time>2015-03-29T10:40:20Z</time>
      </trkpt>
      <trkpt lat="50.11789" lon="4.12649">
        <ele>174.62</ele>
        <time>2015-03-29T10:40:26Z</time>
      </trkpt>
      <trkpt lat="50.11797" lon="4.12624">
        <ele>174.14</ele>
        <time>2015-03-29T10:40:40Z</time>
      </trkpt>
      <trkpt lat="50.11801" lon="4.12586">
        <ele>174.14</ele>
        <time>2015-03-29T10:40:58Z</time>
      </trkpt>
      <trkpt lat="50.1181" lon="4.12544">
        <ele>173.66</ele>
        <time>2015-03-29T10:41:15Z</time>
      </trkpt>
      <trkpt lat="50.11816" lon="4.12517">
        <ele>172.21</ele>
        <time>2015-03-29T10:41:27Z</time>
      </trkpt>
      <trkpt lat="50.11816" lon="4.12512">
        <ele>173.66</ele>
        <time>2015-03-29T10:41:30Z</time>
      </trkpt>
      <trkpt lat="50.11818" lon="4.12502">
        <ele>171.25</ele>
        <time>2015-03-29T10:41:36Z</time>
      </trkpt>
      <trkpt lat="50.1182" lon="4.12461">
        <ele>171.25</ele>
        <time>2015-03-29T10:41:53Z</time>
      </trkpt>
      <trkpt lat="50.11813" lon="4.12425">
        <ele>173.66</ele>
        <time>2015-03-29T10:42:09Z</time>
      </trkpt>
      <trkpt lat="50.11802" lon="4.12399">
        <ele>176.54</ele>
        <time>2015-03-29T10:42:23Z</time>
      </trkpt>
      <trkpt lat="50.11789" lon="4.12377">
        <ele>179.42</ele>
        <time>2015-03-29T10:42:36Z</time>
      </trkpt>
      <trkpt lat="50.11779" lon="4.12356">
        <ele>182.31</ele>
        <time>2015-03-29T10:42:49Z</time>
      </trkpt>
      <trkpt lat="50.11773" lon="4.12332">
        <ele>182.79</ele>
        <time>2015-03-29T10:43:06Z</time>
      </trkpt>
      <trkpt lat="50.11764" lon="4.12291">
        <ele>185.19</ele>
        <time>2015-03-29T10:43:24Z</time>
      </trkpt>
      <trkpt lat="50.11757" lon="4.1227">
        <ele>185.67</ele>
        <time>2015-03-29T10:43:40Z</time>
      </trkpt>
      <trkpt lat="50.11751" lon="4.12251">
        <ele>186.63</ele>
        <time>2015-03-29T10:43:53Z</time>
      </trkpt>
      <trkpt lat="50.11743" lon="4.1222">
        <ele>189.04</ele>
        <time>2015-03-29T10:44:11Z</time>
      </trkpt>
      <trkpt lat="50.11735" lon="4.12191">
        <ele>191.44</ele>
        <time>2015-03-29T10:44:28Z</time>
      </trkpt>
      <trkpt lat="50.1173" lon="4.1217">
        <ele>192.88</ele>
        <time>2015-03-29T10:44:41Z</time>
      </trkpt>
      <trkpt lat="50.11728" lon="4.12151">
        <ele>191.44</ele>
        <time>2015-03-29T10:44:49Z</time>
      </trkpt>
      <trkpt lat="50.11729" lon="4.12128">
        <ele>190</ele>
        <time>2015-03-29T10:45:02Z</time>
      </trkpt>
      <trkpt lat="50.11729" lon="4.1212">
        <ele>189.52</ele>
        <time>2015-03-29T10:45:06Z</time>
      </trkpt>
      <trkpt lat="50.11729" lon="4.12116">
        <ele>189.04</ele>
        <time>2015-03-29T10:45:08Z</time>
      </trkpt>
      <trkpt lat="50.11728" lon="4.12112">
        <ele>189.04</ele>
        <time>2015-03-29T10:45:10Z</time>
      </trkpt>
      <trkpt lat="50.11728" lon="4.12107">
        <ele>188.56</ele>
        <time>2015-03-29T10:45:13Z</time>
      </trkpt>
      <trkpt lat="50.11727" lon="4.12098">
        <ele>188.08</ele>
        <time>2015-03-29T10:45:18Z</time>
      </trkpt>
      <trkpt lat="50.11724" lon="4.12065">
        <ele>187.59</ele>
        <time>2015-03-29T10:45:33Z</time>
      </trkpt>
      <trkpt lat="50.11721" lon="4.12031">
        <ele>187.11</ele>
        <time>2015-03-29T10:45:47Z</time>
      </trkpt>
      <trkpt lat="50.1172" lon="4.12005">
        <ele>185.67</ele>
        <time>2015-03-29T10:46:01Z</time>
      </trkpt>
      <trkpt lat="50.11722" lon="4.11974">
        <ele>184.23</ele>
        <time>2015-03-29T10:46:16Z</time>
      </trkpt>
      <trkpt lat="50.11721" lon="4.1195">
        <ele>183.27</ele>
        <time>2015-03-29T10:46:28Z</time>
      </trkpt>
      <trkpt lat="50.11722" lon="4.11948">
        <ele>183.27</ele>
        <time>2015-03-29T10:46:29Z</time>
      </trkpt>
      <trkpt lat="50.11722" lon="4.11936">
        <ele>182.31</ele>
        <time>2015-03-29T10:46:35Z</time>
      </trkpt>
      <trkpt lat="50.11728" lon="4.11907">
        <ele>179.42</ele>
        <time>2015-03-29T10:46:49Z</time>
      </trkpt>
      <trkpt lat="50.11734" lon="4.11881">
        <ele>176.54</ele>
        <time>2015-03-29T10:47:02Z</time>
      </trkpt>
      <trkpt lat="50.11739" lon="4.11846">
        <ele>175.1</ele>
        <time>2015-03-29T10:47:15Z</time>
      </trkpt>
      <trkpt lat="50.11745" lon="4.1182">
        <ele>172.21</ele>
        <time>2015-03-29T10:47:27Z</time>
      </trkpt>
      <trkpt lat="50.11744" lon="4.11811">
        <ele>171.25</ele>
        <time>2015-03-29T10:47:31Z</time>
      </trkpt>
      <trkpt lat="50.11739" lon="4.1181">
        <ele>171.73</ele>
        <time>2015-03-29T10:47:36Z</time>
      </trkpt>
      <trkpt lat="50.11733" lon="4.11812">
        <ele>171.25</ele>
        <time>2015-03-29T10:47:41Z</time>
      </trkpt>
      <trkpt lat="50.11716" lon="4.11823">
        <ele>169.33</ele>
        <time>2015-03-29T10:47:56Z</time>
      </trkpt>
      <trkpt lat="50.11704" lon="4.11833">
        <ele>170.29</ele>
        <time>2015-03-29T10:48:08Z</time>
      </trkpt>
      <trkpt lat="50.11691" lon="4.11844">
        <ele>170.77</ele>
        <time>2015-03-29T10:48:19Z</time>
      </trkpt>
      <trkpt lat="50.11677" lon="4.11855">
        <ele>171.25</ele>
        <time>2015-03-29T10:48:32Z</time>
      </trkpt>
      <trkpt lat="50.11662" lon="4.11864">
        <ele>171.25</ele>
        <time>2015-03-29T10:48:44Z</time>
      </trkpt>
      <trkpt lat="50.11659" lon="4.11868">
        <ele>170.29</ele>
        <time>2015-03-29T10:48:47Z</time>
      </trkpt>
      <trkpt lat="50.11649" lon="4.11877">
        <ele>169.81</ele>
        <time>2015-03-29T10:48:55Z</time>
      </trkpt>
      <trkpt lat="50.11642" lon="4.11881">
        <ele>170.77</ele>
        <time>2015-03-29T10:48:59Z</time>
      </trkpt>
      <trkpt lat="50.11634" lon="4.11886">
        <ele>171.73</ele>
        <time>2015-03-29T10:49:05Z</time>
      </trkpt>
      <trkpt lat="50.11623" lon="4.11891">
        <ele>169.81</ele>
        <time>2015-03-29T10:49:14Z</time>
      </trkpt>
      <trkpt lat="50.11607" lon="4.11896">
        <ele>171.25</ele>
        <time>2015-03-29T10:49:27Z</time>
      </trkpt>
      <trkpt lat="50.11595" lon="4.11906">
        <ele>172.69</ele>
        <time>2015-03-29T10:49:40Z</time>
      </trkpt>
      <trkpt lat="50.11585" lon="4.11913">
        <ele>169.81</ele>
        <time>2015-03-29T10:49:53Z</time>
      </trkpt>
      <trkpt lat="50.11573" lon="4.11919">
        <ele>168.37</ele>
        <time>2015-03-29T10:50:07Z</time>
      </trkpt>
      <trkpt lat="50.11565" lon="4.1192">
        <ele>171.73</ele>
        <time>2015-03-29T10:50:15Z</time>
      </trkpt>
      <trkpt lat="50.1155" lon="4.11924">
        <ele>173.66</ele>
        <time>2015-03-29T10:50:29Z</time>
      </trkpt>
      <trkpt lat="50.11537" lon="4.11928">
        <ele>174.14</ele>
        <time>2015-03-29T10:50:41Z</time>
      </trkpt>
      <trkpt lat="50.11521" lon="4.11923">
        <ele>175.1</ele>
        <time>2015-03-29T10:50:55Z</time>
      </trkpt>
      <trkpt lat="50.11508" lon="4.11918">
        <ele>176.06</ele>
        <time>2015-03-29T10:51:08Z</time>
      </trkpt>
      <trkpt lat="50.11487" lon="4.11914">
        <ele>177.02</ele>
        <time>2015-03-29T10:51:23Z</time>
      </trkpt>
      <trkpt lat="50.11472" lon="4.1191">
        <ele>175.58</ele>
        <time>2015-03-29T10:51:35Z</time>
      </trkpt>
      <trkpt lat="50.11456" lon="4.11909">
        <ele>174.62</ele>
        <time>2015-03-29T10:51:48Z</time>
      </trkpt>
      <trkpt lat="50.11439" lon="4.11904">
        <ele>174.14</ele>
        <time>2015-03-29T10:52:00Z</time>
      </trkpt>
      <trkpt lat="50.11431" lon="4.11881">
        <ele>171.73</ele>
        <time>2015-03-29T10:52:12Z</time>
      </trkpt>
      <trkpt lat="50.11431" lon="4.11862">
        <ele>171.73</ele>
        <time>2015-03-29T10:52:23Z</time>
      </trkpt>
      <trkpt lat="50.1143" lon="4.11856">
        <ele>172.69</ele>
        <time>2015-03-29T10:52:28Z</time>
      </trkpt>
      <trkpt lat="50.1144" lon="4.11847">
        <ele>174.14</ele>
        <time>2015-03-29T10:52:41Z</time>
      </trkpt>
      <trkpt lat="50.11438" lon="4.11837">
        <ele>177.02</ele>
        <time>2015-03-29T10:52:55Z</time>
      </trkpt>
      <trkpt lat="50.11425" lon="4.11828">
        <ele>177.02</ele>
        <time>2015-03-29T10:53:12Z</time>
      </trkpt>
      <trkpt lat="50.11413" lon="4.11821">
        <ele>177.5</ele>
        <time>2015-03-29T10:53:24Z</time>
      </trkpt>
      <trkpt lat="50.11403" lon="4.11816">
        <ele>178.46</ele>
        <time>2015-03-29T10:53:33Z</time>
      </trkpt>
      <trkpt lat="50.11384" lon="4.11804">
        <ele>177.02</ele>
        <time>2015-03-29T10:53:48Z</time>
      </trkpt>
      <trkpt lat="50.11377" lon="4.118">
        <ele>176.54</ele>
        <time>2015-03-29T10:53:55Z</time>
      </trkpt>
      <trkpt lat="50.11368" lon="4.11795">
        <ele>176.54</ele>
        <time>2015-03-29T10:54:08Z</time>
      </trkpt>
      <trkpt lat="50.11365" lon="4.11793">
        <ele>177.98</ele>
        <time>2015-03-29T10:54:13Z</time>
      </trkpt>
      <trkpt lat="50.11359" lon="4.11782">
        <ele>180.87</ele>
        <time>2015-03-29T10:54:27Z</time>
      </trkpt>
      <trkpt lat="50.11349" lon="4.11766">
        <ele>183.27</ele>
        <time>2015-03-29T10:54:40Z</time>
      </trkpt>
      <trkpt lat="50.11338" lon="4.11755">
        <ele>185.67</ele>
        <time>2015-03-29T10:54:53Z</time>
      </trkpt>
      <trkpt lat="50.11329" lon="4.11738">
        <ele>188.08</ele>
        <time>2015-03-29T10:55:07Z</time>
      </trkpt>
      <trkpt lat="50.11317" lon="4.11725">
        <ele>189.04</ele>
        <time>2015-03-29T10:55:22Z</time>
      </trkpt>
      <trkpt lat="50.11308" lon="4.11714">
        <ele>189.52</ele>
        <time>2015-03-29T10:55:34Z</time>
      </trkpt>
      <trkpt lat="50.11302" lon="4.11704">
        <ele>190.96</ele>
        <time>2015-03-29T10:55:46Z</time>
      </trkpt>
      <trkpt lat="50.1129" lon="4.11687">
        <ele>192.4</ele>
        <time>2015-03-29T10:56:00Z</time>
      </trkpt>
      <trkpt lat="50.11284" lon="4.11675">
        <ele>193.84</ele>
        <time>2015-03-29T10:56:12Z</time>
      </trkpt>
      <trkpt lat="50.11279" lon="4.11666">
        <ele>194.8</ele>
        <time>2015-03-29T10:56:20Z</time>
      </trkpt>
      <trkpt lat="50.11271" lon="4.11648">
        <ele>195.28</ele>
        <time>2015-03-29T10:56:30Z</time>
      </trkpt>
      <trkpt lat="50.11264" lon="4.11631">
        <ele>196.73</ele>
        <time>2015-03-29T10:56:43Z</time>
      </trkpt>
      <trkpt lat="50.11261" lon="4.11615">
        <ele>197.21</ele>
        <time>2015-03-29T10:56:56Z</time>
      </trkpt>
      <trkpt lat="50.11247" lon="4.11587">
        <ele>199.13</ele>
        <time>2015-03-29T10:57:11Z</time>
      </trkpt>
      <trkpt lat="50.1124" lon="4.11574">
        <ele>200.57</ele>
        <time>2015-03-29T10:57:23Z</time>
      </trkpt>
      <trkpt lat="50.11232" lon="4.1155">
        <ele>201.53</ele>
        <time>2015-03-29T10:57:37Z</time>
      </trkpt>
      <trkpt lat="50.11226" lon="4.11533">
        <ele>202.01</ele>
        <time>2015-03-29T10:57:50Z</time>
      </trkpt>
      <trkpt lat="50.11217" lon="4.11512">
        <ele>203.94</ele>
        <time>2015-03-29T10:58:03Z</time>
      </trkpt>
      <trkpt lat="50.11207" lon="4.11493">
        <ele>205.86</ele>
        <time>2015-03-29T10:58:18Z</time>
      </trkpt>
      <trkpt lat="50.11195" lon="4.11471">
        <ele>205.86</ele>
        <time>2015-03-29T10:58:31Z</time>
      </trkpt>
      <trkpt lat="50.11183" lon="4.11452">
        <ele>207.78</ele>
        <time>2015-03-29T10:58:46Z</time>
      </trkpt>
      <trkpt lat="50.11181" lon="4.11447">
        <ele>207.78</ele>
        <time>2015-03-29T10:58:51Z</time>
      </trkpt>
      <trkpt lat="50.11179" lon="4.11442">
        <ele>207.78</ele>
        <time>2015-03-29T10:58:55Z</time>
      </trkpt>
      <trkpt lat="50.11174" lon="4.1143">
        <ele>207.78</ele>
        <time>2015-03-29T10:59:02Z</time>
      </trkpt>
      <trkpt lat="50.11173" lon="4.11427">
        <ele>208.26</ele>
        <time>2015-03-29T10:59:04Z</time>
      </trkpt>
      <trkpt lat="50.11161" lon="4.114">
        <ele>209.22</ele>
        <time>2015-03-29T10:59:18Z</time>
      </trkpt>
      <trkpt lat="50.11148" lon="4.11378">
        <ele>210.67</ele>
        <time>2015-03-29T10:59:35Z</time>
      </trkpt>
      <trkpt lat="50.11145" lon="4.11371">
        <ele>210.67</ele>
        <time>2015-03-29T10:59:39Z</time>
      </trkpt>
      <trkpt lat="50.11137" lon="4.11356">
        <ele>211.15</ele>
        <time>2015-03-29T10:59:49Z</time>
      </trkpt>
      <trkpt lat="50.11134" lon="4.11346">
        <ele>209.7</ele>
        <time>2015-03-29T10:59:55Z</time>
      </trkpt>
      <trkpt lat="50.11129" lon="4.11329">
        <ele>211.15</ele>
        <time>2015-03-29T11:00:08Z</time>
      </trkpt>
      <trkpt lat="50.11127" lon="4.11322">
        <ele>211.63</ele>
        <time>2015-03-29T11:00:14Z</time>
      </trkpt>
      <trkpt lat="50.11126" lon="4.113">
        <ele>212.11</ele>
        <time>2015-03-29T11:00:28Z</time>
      </trkpt>
      <trkpt lat="50.1114" lon="4.11291">
        <ele>212.11</ele>
        <time>2015-03-29T11:00:43Z</time>
      </trkpt>
      <trkpt lat="50.11159" lon="4.11285">
        <ele>212.11</ele>
        <time>2015-03-29T11:00:57Z</time>
      </trkpt>
      <trkpt lat="50.11168" lon="4.1128">
        <ele>211.15</ele>
        <time>2015-03-29T11:01:06Z</time>
      </trkpt>
      <trkpt lat="50.1118" lon="4.11271">
        <ele>210.67</ele>
        <time>2015-03-29T11:01:16Z</time>
      </trkpt>
      <trkpt lat="50.11191" lon="4.11271">
        <ele>210.19</ele>
        <time>2015-03-29T11:01:28Z</time>
      </trkpt>
      <trkpt lat="50.11203" lon="4.1127">
        <ele>209.7</ele>
        <time>2015-03-29T11:01:39Z</time>
      </trkpt>
      <trkpt lat="50.11217" lon="4.1127">
        <ele>209.7</ele>
        <time>2015-03-29T11:01:51Z</time>
      </trkpt>
      <trkpt lat="50.11232" lon="4.11266">
        <ele>209.7</ele>
        <time>2015-03-29T11:02:04Z</time>
      </trkpt>
      <trkpt lat="50.11247" lon="4.11267">
        <ele>210.67</ele>
        <time>2015-03-29T11:02:17Z</time>
      </trkpt>
      <trkpt lat="50.1125" lon="4.11267">
        <ele>210.67</ele>
        <time>2015-03-29T11:02:20Z</time>
      </trkpt>
      <trkpt lat="50.11263" lon="4.11264">
        <ele>209.22</ele>
        <time>2015-03-29T11:02:29Z</time>
      </trkpt>
      <trkpt lat="50.1127" lon="4.11264">
        <ele>208.26</ele>
        <time>2015-03-29T11:02:37Z</time>
      </trkpt>
      <trkpt lat="50.11276" lon="4.11271">
        <ele>208.26</ele>
        <time>2015-03-29T11:02:42Z</time>
      </trkpt>
      <trkpt lat="50.11285" lon="4.11282">
        <ele>207.78</ele>
        <time>2015-03-29T11:02:54Z</time>
      </trkpt>
      <trkpt lat="50.11297" lon="4.11293">
        <ele>208.74</ele>
        <time>2015-03-29T11:03:09Z</time>
      </trkpt>
      <trkpt lat="50.11298" lon="4.11304">
        <ele>208.74</ele>
        <time>2015-03-29T11:03:19Z</time>
      </trkpt>
      <trkpt lat="50.11296" lon="4.11323">
        <ele>208.74</ele>
        <time>2015-03-29T11:03:32Z</time>
      </trkpt>
      <trkpt lat="50.11301" lon="4.11344">
        <ele>208.74</ele>
        <time>2015-03-29T11:03:47Z</time>
      </trkpt>
      <trkpt lat="50.11308" lon="4.11368">
        <ele>208.74</ele>
        <time>2015-03-29T11:04:02Z</time>
      </trkpt>
      <trkpt lat="50.11314" lon="4.11382">
        <ele>207.3</ele>
        <time>2015-03-29T11:04:14Z</time>
      </trkpt>
      <trkpt lat="50.1132" lon="4.11394">
        <ele>207.3</ele>
        <time>2015-03-29T11:04:23Z</time>
      </trkpt>
      <trkpt lat="50.11328" lon="4.11411">
        <ele>206.34</ele>
        <time>2015-03-29T11:04:35Z</time>
      </trkpt>
      <trkpt lat="50.11329" lon="4.11417">
        <ele>206.34</ele>
        <time>2015-03-29T11:04:38Z</time>
      </trkpt>
      <trkpt lat="50.11333" lon="4.11438">
        <ele>206.34</ele>
        <time>2015-03-29T11:04:47Z</time>
      </trkpt>
      <trkpt lat="50.11339" lon="4.11448">
        <ele>206.34</ele>
        <time>2015-03-29T11:04:58Z</time>
      </trkpt>
      <trkpt lat="50.11342" lon="4.1146">
        <ele>205.86</ele>
        <time>2015-03-29T11:05:12Z</time>
      </trkpt>
      <trkpt lat="50.11351" lon="4.11476">
        <ele>205.86</ele>
        <time>2015-03-29T11:05:23Z</time>
      </trkpt>
      <trkpt lat="50.11356" lon="4.11492">
        <ele>205.86</ele>
        <time>2015-03-29T11:05:32Z</time>
      </trkpt>
      <trkpt lat="50.1136" lon="4.11504">
        <ele>205.38</ele>
        <time>2015-03-29T11:05:41Z</time>
      </trkpt>
      <trkpt lat="50.11362" lon="4.11512">
        <ele>203.94</ele>
        <time>2015-03-29T11:05:46Z</time>
      </trkpt>
      <trkpt lat="50.11363" lon="4.11516">
        <ele>203.94</ele>
        <time>2015-03-29T11:05:48Z</time>
      </trkpt>
      <trkpt lat="50.11362" lon="4.1152">
        <ele>203.46</ele>
        <time>2015-03-29T11:05:51Z</time>
      </trkpt>
      <trkpt lat="50.11372" lon="4.11533">
        <ele>202.49</ele>
        <time>2015-03-29T11:06:05Z</time>
      </trkpt>
      <trkpt lat="50.1138" lon="4.11548">
        <ele>202.49</ele>
        <time>2015-03-29T11:06:18Z</time>
      </trkpt>
      <trkpt lat="50.11388" lon="4.11567">
        <ele>201.53</ele>
        <time>2015-03-29T11:06:32Z</time>
      </trkpt>
      <trkpt lat="50.11393" lon="4.11585">
        <ele>199.61</ele>
        <time>2015-03-29T11:06:45Z</time>
      </trkpt>
      <trkpt lat="50.11398" lon="4.11606">
        <ele>198.17</ele>
        <time>2015-03-29T11:06:59Z</time>
      </trkpt>
      <trkpt lat="50.11401" lon="4.11635">
        <ele>196.73</ele>
        <time>2015-03-29T11:07:14Z</time>
      </trkpt>
      <trkpt lat="50.11402" lon="4.11643">
        <ele>195.28</ele>
        <time>2015-03-29T11:07:19Z</time>
      </trkpt>
      <trkpt lat="50.11415" lon="4.11667">
        <ele>193.36</ele>
        <time>2015-03-29T11:07:36Z</time>
      </trkpt>
      <trkpt lat="50.11416" lon="4.11668">
        <ele>193.36</ele>
        <time>2015-03-29T11:07:37Z</time>
      </trkpt>
      <trkpt lat="50.11421" lon="4.11689">
        <ele>189.52</ele>
        <time>2015-03-29T11:07:50Z</time>
      </trkpt>
      <trkpt lat="50.11422" lon="4.11697">
        <ele>189.04</ele>
        <time>2015-03-29T11:07:56Z</time>
      </trkpt>
      <trkpt lat="50.11432" lon="4.11713">
        <ele>187.59</ele>
        <time>2015-03-29T11:08:09Z</time>
      </trkpt>
      <trkpt lat="50.11434" lon="4.11721">
        <ele>186.63</ele>
        <time>2015-03-29T11:08:14Z</time>
      </trkpt>
      <trkpt lat="50.11438" lon="4.11738">
        <ele>184.23</ele>
        <time>2015-03-29T11:08:29Z</time>
      </trkpt>
      <trkpt lat="50.11444" lon="4.11753">
        <ele>181.83</ele>
        <time>2015-03-29T11:08:42Z</time>
      </trkpt>
      <trkpt lat="50.11448" lon="4.11765">
        <ele>180.87</ele>
        <time>2015-03-29T11:08:52Z</time>
      </trkpt>
      <trkpt lat="50.11449" lon="4.11774">
        <ele>179.42</ele>
        <time>2015-03-29T11:08:55Z</time>
      </trkpt>
      <trkpt lat="50.1146" lon="4.1179">
        <ele>178.46</ele>
        <time>2015-03-29T11:09:09Z</time>
      </trkpt>
      <trkpt lat="50.11466" lon="4.11813">
        <ele>177.5</ele>
        <time>2015-03-29T11:09:23Z</time>
      </trkpt>
      <trkpt lat="50.11474" lon="4.11818">
        <ele>177.02</ele>
        <time>2015-03-29T11:09:30Z</time>
      </trkpt>
      <trkpt lat="50.11486" lon="4.11823">
        <ele>176.54</ele>
        <time>2015-03-29T11:09:43Z</time>
      </trkpt>
      <trkpt lat="50.11492" lon="4.11824">
        <ele>176.54</ele>
        <time>2015-03-29T11:09:50Z</time>
      </trkpt>
      <trkpt lat="50.11506" lon="4.11817">
        <ele>176.06</ele>
        <time>2015-03-29T11:10:04Z</time>
      </trkpt>
      <trkpt lat="50.11523" lon="4.11802">
        <ele>176.06</ele>
        <time>2015-03-29T11:10:18Z</time>
      </trkpt>
      <trkpt lat="50.11539" lon="4.11778">
        <ele>177.02</ele>
        <time>2015-03-29T11:10:33Z</time>
      </trkpt>
      <trkpt lat="50.11547" lon="4.11761">
        <ele>178.94</ele>
        <time>2015-03-29T11:10:46Z</time>
      </trkpt>
      <trkpt lat="50.11549" lon="4.11759">
        <ele>178.94</ele>
        <time>2015-03-29T11:10:48Z</time>
      </trkpt>
      <trkpt lat="50.11552" lon="4.11755">
        <ele>178.94</ele>
        <time>2015-03-29T11:10:52Z</time>
      </trkpt>
      <trkpt lat="50.11564" lon="4.1174">
        <ele>179.42</ele>
        <time>2015-03-29T11:11:06Z</time>
      </trkpt>
      <trkpt lat="50.11581" lon="4.11723">
        <ele>180.38</ele>
        <time>2015-03-29T11:11:22Z</time>
      </trkpt>
      <trkpt lat="50.11583" lon="4.1172">
        <ele>180.38</ele>
        <time>2015-03-29T11:11:25Z</time>
      </trkpt>
      <trkpt lat="50.11596" lon="4.11705">
        <ele>181.35</ele>
        <time>2015-03-29T11:11:41Z</time>
      </trkpt>
      <trkpt lat="50.1161" lon="4.11688">
        <ele>181.35</ele>
        <time>2015-03-29T11:11:56Z</time>
      </trkpt>
      <trkpt lat="50.11618" lon="4.11669">
        <ele>182.31</ele>
        <time>2015-03-29T11:12:09Z</time>
      </trkpt>
      <trkpt lat="50.11626" lon="4.11651">
        <ele>182.79</ele>
        <time>2015-03-29T11:12:24Z</time>
      </trkpt>
      <trkpt lat="50.1163" lon="4.11633">
        <ele>185.19</ele>
        <time>2015-03-29T11:12:40Z</time>
      </trkpt>
      <trkpt lat="50.11634" lon="4.11618">
        <ele>184.23</ele>
        <time>2015-03-29T11:12:52Z</time>
      </trkpt>
      <trkpt lat="50.1164" lon="4.11599">
        <ele>183.75</ele>
        <time>2015-03-29T11:13:06Z</time>
      </trkpt>
      <trkpt lat="50.11644" lon="4.11577">
        <ele>182.79</ele>
        <time>2015-03-29T11:13:19Z</time>
      </trkpt>
      <trkpt lat="50.11641" lon="4.11545">
        <ele>181.35</ele>
        <time>2015-03-29T11:13:34Z</time>
      </trkpt>
      <trkpt lat="50.11641" lon="4.11538">
        <ele>181.35</ele>
        <time>2015-03-29T11:13:38Z</time>
      </trkpt>
      <trkpt lat="50.1164" lon="4.11513">
        <ele>181.35</ele>
        <time>2015-03-29T11:13:51Z</time>
      </trkpt>
      <trkpt lat="50.11638" lon="4.11491">
        <ele>181.35</ele>
        <time>2015-03-29T11:14:02Z</time>
      </trkpt>
      <trkpt lat="50.11638" lon="4.11465">
        <ele>180.38</ele>
        <time>2015-03-29T11:14:16Z</time>
      </trkpt>
      <trkpt lat="50.11643" lon="4.11436">
        <ele>179.42</ele>
        <time>2015-03-29T11:14:31Z</time>
      </trkpt>
      <trkpt lat="50.11647" lon="4.11406">
        <ele>179.42</ele>
        <time>2015-03-29T11:14:47Z</time>
      </trkpt>
      <trkpt lat="50.11649" lon="4.11378">
        <ele>179.42</ele>
        <time>2015-03-29T11:15:03Z</time>
      </trkpt>
      <trkpt lat="50.11653" lon="4.11352">
        <ele>179.42</ele>
        <time>2015-03-29T11:15:18Z</time>
      </trkpt>
      <trkpt lat="50.11656" lon="4.11329">
        <ele>178.94</ele>
        <time>2015-03-29T11:15:34Z</time>
      </trkpt>
      <trkpt lat="50.11659" lon="4.11311">
        <ele>177.98</ele>
        <time>2015-03-29T11:15:46Z</time>
      </trkpt>
      <trkpt lat="50.11667" lon="4.1129">
        <ele>177.5</ele>
        <time>2015-03-29T11:16:02Z</time>
      </trkpt>
      <trkpt lat="50.11675" lon="4.11266">
        <ele>177.5</ele>
        <time>2015-03-29T11:16:15Z</time>
      </trkpt>
      <trkpt lat="50.11681" lon="4.11251">
        <ele>177.5</ele>
        <time>2015-03-29T11:16:30Z</time>
      </trkpt>
      <trkpt lat="50.11691" lon="4.11236">
        <ele>177.02</ele>
        <time>2015-03-29T11:16:45Z</time>
      </trkpt>
      <trkpt lat="50.117" lon="4.11228">
        <ele>176.54</ele>
        <time>2015-03-29T11:16:56Z</time>
      </trkpt>
      <trkpt lat="50.11706" lon="4.11213">
        <ele>176.06</ele>
        <time>2015-03-29T11:17:07Z</time>
      </trkpt>
      <trkpt lat="50.11705" lon="4.11188">
        <ele>176.06</ele>
        <time>2015-03-29T11:17:22Z</time>
      </trkpt>
      <trkpt lat="50.11705" lon="4.11188">
        <ele>177.98</ele>
        <time>2015-03-29T11:17:24Z</time>
      </trkpt>
      <trkpt lat="50.11704" lon="4.1118">
        <ele>178.94</ele>
        <time>2015-03-29T11:17:39Z</time>
      </trkpt>
      <trkpt lat="50.11698" lon="4.11167">
        <ele>179.42</ele>
        <time>2015-03-29T11:17:53Z</time>
      </trkpt>
      <trkpt lat="50.11698" lon="4.11155">
        <ele>179.9</ele>
        <time>2015-03-29T11:18:07Z</time>
      </trkpt>
      <trkpt lat="50.11697" lon="4.1115">
        <ele>178.46</ele>
        <time>2015-03-29T11:18:12Z</time>
      </trkpt>
      <trkpt lat="50.11698" lon="4.11138">
        <ele>178.46</ele>
        <time>2015-03-29T11:18:24Z</time>
      </trkpt>
      <trkpt lat="50.11703" lon="4.1113">
        <ele>177.5</ele>
        <time>2015-03-29T11:18:37Z</time>
      </trkpt>
      <trkpt lat="50.11708" lon="4.11122">
        <ele>175.1</ele>
        <time>2015-03-29T11:18:52Z</time>
      </trkpt>
      <trkpt lat="50.11713" lon="4.1111">
        <ele>173.66</ele>
        <time>2015-03-29T11:19:04Z</time>
      </trkpt>
      <trkpt lat="50.11715" lon="4.11095">
        <ele>173.66</ele>
        <time>2015-03-29T11:19:17Z</time>
      </trkpt>
      <trkpt lat="50.1172" lon="4.11087">
        <ele>172.21</ele>
        <time>2015-03-29T11:19:33Z</time>
      </trkpt>
      <trkpt lat="50.11723" lon="4.11087">
        <ele>170.29</ele>
        <time>2015-03-29T11:19:48Z</time>
      </trkpt>
      <trkpt lat="50.11731" lon="4.11088">
        <ele>168.37</ele>
        <time>2015-03-29T11:20:00Z</time>
      </trkpt>
      <trkpt lat="50.11736" lon="4.11086">
        <ele>165.96</ele>
        <time>2015-03-29T11:20:10Z</time>
      </trkpt>
      <trkpt lat="50.11757" lon="4.11078">
        <ele>165.48</ele>
        <time>2015-03-29T11:20:24Z</time>
      </trkpt>
      <trkpt lat="50.11772" lon="4.11084">
        <ele>163.56</ele>
        <time>2015-03-29T11:20:38Z</time>
      </trkpt>
      <trkpt lat="50.11773" lon="4.11084">
        <ele>163.56</ele>
        <time>2015-03-29T11:20:39Z</time>
      </trkpt>
      <trkpt lat="50.11791" lon="4.11085">
        <ele>164.52</ele>
        <time>2015-03-29T11:20:53Z</time>
      </trkpt>
      <trkpt lat="50.11804" lon="4.11087">
        <ele>162.6</ele>
        <time>2015-03-29T11:21:02Z</time>
      </trkpt>
      <trkpt lat="50.11828" lon="4.11086">
        <ele>162.12</ele>
        <time>2015-03-29T11:21:19Z</time>
      </trkpt>
      <trkpt lat="50.11832" lon="4.11087">
        <ele>163.08</ele>
        <time>2015-03-29T11:21:22Z</time>
      </trkpt>
      <trkpt lat="50.11853" lon="4.11092">
        <ele>164.04</ele>
        <time>2015-03-29T11:21:39Z</time>
      </trkpt>
      <trkpt lat="50.11876" lon="4.11093">
        <ele>164.04</ele>
        <time>2015-03-29T11:21:58Z</time>
      </trkpt>
      <trkpt lat="50.11896" lon="4.11092">
        <ele>164.04</ele>
        <time>2015-03-29T11:22:16Z</time>
      </trkpt>
      <trkpt lat="50.11914" lon="4.11094">
        <ele>165.48</ele>
        <time>2015-03-29T11:22:33Z</time>
      </trkpt>
      <trkpt lat="50.11935" lon="4.11098">
        <ele>165.48</ele>
        <time>2015-03-29T11:22:51Z</time>
      </trkpt>
      <trkpt lat="50.11952" lon="4.11088">
        <ele>167.41</ele>
        <time>2015-03-29T11:23:07Z</time>
      </trkpt>
      <trkpt lat="50.1196" lon="4.11087">
        <ele>167.89</ele>
        <time>2015-03-29T11:23:13Z</time>
      </trkpt>
      <trkpt lat="50.11963" lon="4.11089">
        <ele>167.89</ele>
        <time>2015-03-29T11:23:16Z</time>
      </trkpt>
      <trkpt lat="50.11981" lon="4.11089">
        <ele>170.29</ele>
        <time>2015-03-29T11:23:33Z</time>
      </trkpt>
      <trkpt lat="50.11999" lon="4.111">
        <ele>172.69</ele>
        <time>2015-03-29T11:23:51Z</time>
      </trkpt>
      <trkpt lat="50.12008" lon="4.11116">
        <ele>174.14</ele>
        <time>2015-03-29T11:24:04Z</time>
      </trkpt>
      <trkpt lat="50.12011" lon="4.11129">
        <ele>175.1</ele>
        <time>2015-03-29T11:24:14Z</time>
      </trkpt>
      <trkpt lat="50.12011" lon="4.11138">
        <ele>176.06</ele>
        <time>2015-03-29T11:24:20Z</time>
      </trkpt>
      <trkpt lat="50.12018" lon="4.11164">
        <ele>177.98</ele>
        <time>2015-03-29T11:24:37Z</time>
      </trkpt>
      <trkpt lat="50.12024" lon="4.11185">
        <ele>179.42</ele>
        <time>2015-03-29T11:24:52Z</time>
      </trkpt>
      <trkpt lat="50.12029" lon="4.11199">
        <ele>182.31</ele>
        <time>2015-03-29T11:25:03Z</time>
      </trkpt>
      <trkpt lat="50.12032" lon="4.11225">
        <ele>180.87</ele>
        <time>2015-03-29T11:25:20Z</time>
      </trkpt>
      <trkpt lat="50.12034" lon="4.11245">
        <ele>182.31</ele>
        <time>2015-03-29T11:25:33Z</time>
      </trkpt>
      <trkpt lat="50.1204" lon="4.11276">
        <ele>182.79</ele>
        <time>2015-03-29T11:25:52Z</time>
      </trkpt>
      <trkpt lat="50.12043" lon="4.11305">
        <ele>185.19</ele>
        <time>2015-03-29T11:26:11Z</time>
      </trkpt>
      <trkpt lat="50.12043" lon="4.11317">
        <ele>183.75</ele>
        <time>2015-03-29T11:26:17Z</time>
      </trkpt>
      <trkpt lat="50.12044" lon="4.11327">
        <ele>183.27</ele>
        <time>2015-03-29T11:26:22Z</time>
      </trkpt>
      <trkpt lat="50.12048" lon="4.11353">
        <ele>182.79</ele>
        <time>2015-03-29T11:26:36Z</time>
      </trkpt>
      <trkpt lat="50.12051" lon="4.11369">
        <ele>184.23</ele>
        <time>2015-03-29T11:26:45Z</time>
      </trkpt>
      <trkpt lat="50.12051" lon="4.11376">
        <ele>185.19</ele>
        <time>2015-03-29T11:26:49Z</time>
      </trkpt>
      <trkpt lat="50.12054" lon="4.11398">
        <ele>184.23</ele>
        <time>2015-03-29T11:27:02Z</time>
      </trkpt>
      <trkpt lat="50.12055" lon="4.11402">
        <ele>182.79</ele>
        <time>2015-03-29T11:27:04Z</time>
      </trkpt>
      <trkpt lat="50.12058" lon="4.11427">
        <ele>182.31</ele>
        <time>2015-03-29T11:27:19Z</time>
      </trkpt>
      <trkpt lat="50.12061" lon="4.11436">
        <ele>182.31</ele>
        <time>2015-03-29T11:27:24Z</time>
      </trkpt>
      <trkpt lat="50.12065" lon="4.11442">
        <ele>182.31</ele>
        <time>2015-03-29T11:27:28Z</time>
      </trkpt>
      <trkpt lat="50.12071" lon="4.11453">
        <ele>182.31</ele>
        <time>2015-03-29T11:27:35Z</time>
      </trkpt>
      <trkpt lat="50.12075" lon="4.11461">
        <ele>182.31</ele>
        <time>2015-03-29T11:27:40Z</time>
      </trkpt>
      <trkpt lat="50.12085" lon="4.11489">
        <ele>181.83</ele>
        <time>2015-03-29T11:27:57Z</time>
      </trkpt>
      <trkpt lat="50.12092" lon="4.11519">
        <ele>182.79</ele>
        <time>2015-03-29T11:28:13Z</time>
      </trkpt>
      <trkpt lat="50.12096" lon="4.1153">
        <ele>181.83</ele>
        <time>2015-03-29T11:28:20Z</time>
      </trkpt>
      <trkpt lat="50.12098" lon="4.11534">
        <ele>183.27</ele>
        <time>2015-03-29T11:28:22Z</time>
      </trkpt>
      <trkpt lat="50.12102" lon="4.11544">
        <ele>181.83</ele>
        <time>2015-03-29T11:28:28Z</time>
      </trkpt>
      <trkpt lat="50.12111" lon="4.11578">
        <ele>180.87</ele>
        <time>2015-03-29T11:28:46Z</time>
      </trkpt>
      <trkpt lat="50.12119" lon="4.11616">
        <ele>179.9</ele>
        <time>2015-03-29T11:29:06Z</time>
      </trkpt>
      <trkpt lat="50.12124" lon="4.1165">
        <ele>179.42</ele>
        <time>2015-03-29T11:29:23Z</time>
      </trkpt>
      <trkpt lat="50.12129" lon="4.1168">
        <ele>177.98</ele>
        <time>2015-03-29T11:29:39Z</time>
      </trkpt>
      <trkpt lat="50.12135" lon="4.11695">
        <ele>177.5</ele>
        <time>2015-03-29T11:29:52Z</time>
      </trkpt>
      <trkpt lat="50.1214" lon="4.11693">
        <ele>178.94</ele>
        <time>2015-03-29T11:29:59Z</time>
      </trkpt>
      <trkpt lat="50.12151" lon="4.11691">
        <ele>179.42</ele>
        <time>2015-03-29T11:30:09Z</time>
      </trkpt>
      <trkpt lat="50.1216" lon="4.11721">
        <ele>180.38</ele>
        <time>2015-03-29T11:30:25Z</time>
      </trkpt>
      <trkpt lat="50.12161" lon="4.11725">
        <ele>180.38</ele>
        <time>2015-03-29T11:30:27Z</time>
      </trkpt>
      <trkpt lat="50.12171" lon="4.11764">
        <ele>180.38</ele>
        <time>2015-03-29T11:30:46Z</time>
      </trkpt>
      <trkpt lat="50.12176" lon="4.118">
        <ele>179.42</ele>
        <time>2015-03-29T11:31:03Z</time>
      </trkpt>
      <trkpt lat="50.12184" lon="4.1183">
        <ele>181.35</ele>
        <time>2015-03-29T11:31:18Z</time>
      </trkpt>
      <trkpt lat="50.12185" lon="4.11834">
        <ele>180.38</ele>
        <time>2015-03-29T11:31:20Z</time>
      </trkpt>
      <trkpt lat="50.12187" lon="4.11842">
        <ele>177.98</ele>
        <time>2015-03-29T11:31:24Z</time>
      </trkpt>
      <trkpt lat="50.12192" lon="4.11859">
        <ele>179.9</ele>
        <time>2015-03-29T11:31:32Z</time>
      </trkpt>
      <trkpt lat="50.122" lon="4.11896">
        <ele>178.94</ele>
        <time>2015-03-29T11:31:52Z</time>
      </trkpt>
      <trkpt lat="50.12204" lon="4.11913">
        <ele>178.94</ele>
        <time>2015-03-29T11:32:00Z</time>
      </trkpt>
      <trkpt lat="50.12207" lon="4.11941">
        <ele>178.94</ele>
        <time>2015-03-29T11:32:14Z</time>
      </trkpt>
      <trkpt lat="50.1221" lon="4.11973">
        <ele>180.38</ele>
        <time>2015-03-29T11:32:30Z</time>
      </trkpt>
      <trkpt lat="50.1221" lon="4.11977">
        <ele>180.87</ele>
        <time>2015-03-29T11:32:32Z</time>
      </trkpt>
      <trkpt lat="50.12211" lon="4.12004">
        <ele>180.38</ele>
        <time>2015-03-29T11:32:45Z</time>
      </trkpt>
      <trkpt lat="50.12211" lon="4.1203">
        <ele>181.83</ele>
        <time>2015-03-29T11:32:58Z</time>
      </trkpt>
      <trkpt lat="50.12208" lon="4.12049">
        <ele>180.38</ele>
        <time>2015-03-29T11:33:08Z</time>
      </trkpt>
      <trkpt lat="50.12198" lon="4.12081">
        <ele>178.94</ele>
        <time>2015-03-29T11:33:25Z</time>
      </trkpt>
      <trkpt lat="50.12186" lon="4.12107">
        <ele>177.98</ele>
        <time>2015-03-29T11:33:41Z</time>
      </trkpt>
      <trkpt lat="50.12175" lon="4.12131">
        <ele>177.98</ele>
        <time>2015-03-29T11:33:54Z</time>
      </trkpt>
      <trkpt lat="50.1217" lon="4.12175">
        <ele>177.02</ele>
        <time>2015-03-29T11:34:12Z</time>
      </trkpt>
      <trkpt lat="50.12177" lon="4.1221">
        <ele>177.02</ele>
        <time>2015-03-29T11:34:29Z</time>
      </trkpt>
      <trkpt lat="50.12182" lon="4.12222">
        <ele>178.46</ele>
        <time>2015-03-29T11:34:35Z</time>
      </trkpt>
      <trkpt lat="50.12184" lon="4.12232">
        <ele>178.94</ele>
        <time>2015-03-29T11:34:40Z</time>
      </trkpt>
      <trkpt lat="50.1218" lon="4.12234">
        <ele>176.06</ele>
        <time>2015-03-29T11:34:43Z</time>
      </trkpt>
      <trkpt lat="50.12179" lon="4.12232">
        <ele>176.06</ele>
        <time>2015-03-29T11:34:44Z</time>
      </trkpt>
      <trkpt lat="50.12178" lon="4.12231">
        <ele>176.06</ele>
        <time>2015-03-29T11:34:45Z</time>
      </trkpt>
      <trkpt lat="50.12175" lon="4.12227">
        <ele>177.5</ele>
        <time>2015-03-29T11:34:48Z</time>
      </trkpt>
      <trkpt lat="50.12168" lon="4.1221">
        <ele>176.06</ele>
        <time>2015-03-29T11:34:58Z</time>
      </trkpt>
      <trkpt lat="50.12159" lon="4.12183">
        <ele>175.58</ele>
        <time>2015-03-29T11:35:12Z</time>
      </trkpt>
      <trkpt lat="50.12154" lon="4.12159">
        <ele>174.62</ele>
        <time>2015-03-29T11:35:25Z</time>
      </trkpt>
      <trkpt lat="50.12151" lon="4.12143">
        <ele>174.62</ele>
        <time>2015-03-29T11:35:39Z</time>
      </trkpt>
      <trkpt lat="50.12151" lon="4.12142">
        <ele>174.62</ele>
        <time>2015-03-29T11:35:52Z</time>
      </trkpt>
      <trkpt lat="50.12151" lon="4.1214">
        <ele>174.62</ele>
        <time>2015-03-29T11:36:09Z</time>
      </trkpt>
      <trkpt lat="50.12151" lon="4.1214">
        <ele>175.58</ele>
        <time>2015-03-29T11:36:17Z</time>
      </trkpt>
    </trkseg>
  </trk>
</gpx>